ITY171 KMCO-LIMC
Flight info
| Callsign | ITY171 |
|---|---|
| Flight time | 9h 0m |
| Altitude | 34000 |
| Route | FATHE4 VIYAP Q87 JROSS Q135 RAPZZ PRONI PUNGO PHITZ DWSEN KW54A PREPI KB63C MONTK VITOL NANSO N55B RAFIN 4550N 4740N 4730N 4720N 4715N SEPAL UN470 LAPEX GALOF PECNO VALKU TIS MEBAK GIPNO BALSI GIGUS MEDAM LAPRI MOGBO TOP M135 ASTIG |
| Aircraft | A359/H-SDE2E3GHIJ3J4J5LM1ORWXY/LB1D1 |
Departure
| Time | 2026-04-25 13:57 |
|---|---|
| Airport | Orlando International Airport (KMCO) |
Arrival
| Time | 2026-04-25 22:57 |
|---|---|
| Airport | Milan Malpensa International Airport (LIMC) |
| Time | Latitude | Longitude | Altitude | Speed | Heading |
|---|---|---|---|---|---|
| 2026-04-25 12:52 | 28.42768 | -81.30298 | 101 ft | 0 kts | 191° |
| 2026-04-25 13:42 | 28.42777 | -81.30296 | 101 ft | 2 kts | 200° |
| 2026-04-25 13:42 | 28.42792 | -81.30287 | 100 ft | 2 kts | 237° |
| 2026-04-25 13:42 | 28.42793 | -81.30269 | 98 ft | 2 kts | 302° |
| 2026-04-25 13:42 | 28.42788 | -81.30261 | 98 ft | 1 kts | 313° |
| 2026-04-25 13:45 | 28.42790 | -81.30264 | 98 ft | 2 kts | 313° |
| 2026-04-25 13:45 | 28.42813 | -81.30294 | 100 ft | 9 kts | 306° |
| 2026-04-25 13:46 | 28.42805 | -81.30379 | 103 ft | 12 kts | 240° |
| 2026-04-25 13:46 | 28.42751 | -81.30449 | 103 ft | 12 kts | 212° |
| 2026-04-25 13:46 | 28.42669 | -81.30464 | 103 ft | 12 kts | 170° |
| 2026-04-25 13:46 | 28.42594 | -81.30418 | 103 ft | 12 kts | 152° |
| 2026-04-25 13:47 | 28.42516 | -81.30403 | 104 ft | 10 kts | 178° |
| 2026-04-25 13:47 | 28.42434 | -81.30402 | 103 ft | 13 kts | 179° |
| 2026-04-25 13:47 | 28.42372 | -81.30378 | 103 ft | 8 kts | 134° |
| 2026-04-25 13:47 | 28.42357 | -81.30318 | 102 ft | 8 kts | 89° |
| 2026-04-25 13:48 | 28.42359 | -81.30240 | 103 ft | 11 kts | 89° |
| 2026-04-25 13:48 | 28.42362 | -81.30122 | 101 ft | 19 kts | 90° |
| 2026-04-25 13:48 | 28.42362 | -81.29973 | 101 ft | 17 kts | 90° |
| 2026-04-25 13:48 | 28.42369 | -81.29843 | 102 ft | 15 kts | 71° |
| 2026-04-25 13:49 | 28.42445 | -81.29797 | 104 ft | 13 kts | 5° |
| 2026-04-25 13:49 | 28.42545 | -81.29796 | 102 ft | 15 kts | 360° |
| 2026-04-25 13:49 | 28.42657 | -81.29797 | 102 ft | 18 kts | 359° |
| 2026-04-25 13:49 | 28.42800 | -81.29798 | 102 ft | 22 kts | 359° |
| 2026-04-25 13:50 | 28.42957 | -81.29800 | 102 ft | 23 kts | 359° |
| 2026-04-25 13:50 | 28.43084 | -81.29801 | 102 ft | 13 kts | 359° |
| 2026-04-25 13:50 | 28.43145 | -81.29802 | 102 ft | 5 kts | 359° |
| 2026-04-25 13:50 | 28.43180 | -81.29802 | 102 ft | 4 kts | 359° |
| 2026-04-25 13:51 | 28.43211 | -81.29802 | 102 ft | 5 kts | 359° |
| 2026-04-25 13:51 | 28.43236 | -81.29803 | 104 ft | 1 kts | 359° |
| 2026-04-25 13:53 | 28.43323 | -81.29803 | 103 ft | 25 kts | 359° |
| 2026-04-25 13:53 | 28.43499 | -81.29807 | 102 ft | 19 kts | 359° |
| 2026-04-25 13:53 | 28.43549 | -81.29749 | 103 ft | 8 kts | 80° |
| 2026-04-25 13:54 | 28.43549 | -81.29738 | 103 ft | 0 kts | 88° |
| 2026-04-25 13:55 | 28.43550 | -81.29727 | 104 ft | 6 kts | 88° |
| 2026-04-25 13:55 | 28.43548 | -81.29631 | 104 ft | 13 kts | 106° |
| 2026-04-25 13:55 | 28.43481 | -81.29589 | 104 ft | 11 kts | 174° |
| 2026-04-25 13:55 | 28.43455 | -81.29587 | 105 ft | 0 kts | 178° |
| 2026-04-25 13:56 | 28.43454 | -81.29587 | 105 ft | 0 kts | 178° |
| 2026-04-25 13:56 | 28.43341 | -81.29585 | 105 ft | 47 kts | 179° |
| 2026-04-25 13:56 | 28.42737 | -81.29579 | 103 ft | 124 kts | 179° |
| 2026-04-25 13:56 | 28.41667 | -81.29568 | 321 ft | 166 kts | 179° |
| 2026-04-25 13:57 | 28.40526 | -81.29514 | 1260 ft | 162 kts | 178° |
| 2026-04-25 13:57 | 28.40157 | -81.29496 | 1514 ft | 165 kts | 179° |
| 2026-04-25 13:57 | 28.38104 | -81.29220 | 1874 ft | 192 kts | 166° |
| 2026-04-25 13:57 | 28.36853 | -81.28473 | 2122 ft | 211 kts | 147° |
| 2026-04-25 13:58 | 28.35613 | -81.27494 | 2301 ft | 229 kts | 146° |
| 2026-04-25 13:58 | 28.34342 | -81.26247 | 2536 ft | 247 kts | 135° |
| 2026-04-25 13:58 | 28.33171 | -81.24800 | 2916 ft | 257 kts | 131° |
| 2026-04-25 13:58 | 28.32308 | -81.23008 | 3385 ft | 263 kts | 104° |
| 2026-04-25 13:59 | 28.32181 | -81.20941 | 3928 ft | 265 kts | 86° |
| 2026-04-25 13:59 | 28.32359 | -81.18846 | 4472 ft | 268 kts | 82° |
| 2026-04-25 13:59 | 28.32865 | -81.16806 | 5004 ft | 270 kts | 64° |
| 2026-04-25 13:59 | 28.33969 | -81.15094 | 5543 ft | 271 kts | 42° |
| 2026-04-25 14:00 | 28.34934 | -81.14134 | 5921 ft | 273 kts | 37° |
| 2026-04-25 14:00 | 28.37175 | -81.12874 | 6599 ft | 276 kts | 11° |
| 2026-04-25 14:00 | 28.39082 | -81.12942 | 7132 ft | 275 kts | 346° |
| 2026-04-25 14:00 | 28.40930 | -81.13516 | 7691 ft | 276 kts | 342° |
| 2026-04-25 14:01 | 28.42762 | -81.14158 | 8268 ft | 276 kts | 342° |
| 2026-04-25 14:01 | 28.44608 | -81.14811 | 8827 ft | 278 kts | 341° |
| 2026-04-25 14:01 | 28.46463 | -81.15468 | 9364 ft | 281 kts | 341° |
| 2026-04-25 14:01 | 28.48333 | -81.16130 | 9930 ft | 282 kts | 341° |
| 2026-04-25 14:02 | 28.50224 | -81.16801 | 10308 ft | 290 kts | 341° |
| 2026-04-25 14:02 | 28.52193 | -81.17500 | 10506 ft | 303 kts | 341° |
| 2026-04-25 14:02 | 28.54248 | -81.18230 | 10747 ft | 315 kts | 341° |
| 2026-04-25 14:02 | 28.54955 | -81.18481 | 10834 ft | 319 kts | 341° |
| 2026-04-25 14:03 | 28.58585 | -81.19769 | 11206 ft | 338 kts | 341° |
| 2026-04-25 14:03 | 28.60864 | -81.20577 | 11429 ft | 348 kts | 341° |
| 2026-04-25 14:03 | 28.63215 | -81.21412 | 11650 ft | 358 kts | 341° |
| 2026-04-25 14:03 | 28.65624 | -81.22268 | 11851 ft | 367 kts | 341° |
| 2026-04-25 14:04 | 28.68088 | -81.23143 | 12152 ft | 373 kts | 341° |
| 2026-04-25 14:04 | 28.70571 | -81.24026 | 12539 ft | 376 kts | 341° |
| 2026-04-25 14:04 | 28.73078 | -81.24917 | 12960 ft | 377 kts | 341° |
| 2026-04-25 14:04 | 28.75542 | -81.25794 | 13363 ft | 379 kts | 341° |
| 2026-04-25 14:05 | 28.78071 | -81.26695 | 13784 ft | 381 kts | 341° |
| 2026-04-25 14:05 | 28.80639 | -81.27610 | 14137 ft | 383 kts | 341° |
| 2026-04-25 14:05 | 28.83163 | -81.28486 | 14464 ft | 386 kts | 343° |
| 2026-04-25 14:05 | 28.85822 | -81.29003 | 14796 ft | 390 kts | 353° |
| 2026-04-25 14:06 | 28.88539 | -81.29254 | 15131 ft | 393 kts | 354° |
| 2026-04-25 14:06 | 28.91273 | -81.29474 | 15488 ft | 395 kts | 354° |
| 2026-04-25 14:06 | 28.94025 | -81.29699 | 15862 ft | 397 kts | 354° |
| 2026-04-25 14:06 | 28.96793 | -81.29928 | 16221 ft | 400 kts | 354° |
| 2026-04-25 14:07 | 28.99573 | -81.30164 | 16580 ft | 402 kts | 354° |
| 2026-04-25 14:07 | 29.02367 | -81.30448 | 16936 ft | 404 kts | 352° |
| 2026-04-25 14:07 | 29.04220 | -81.30661 | 17166 ft | 405 kts | 352° |
| 2026-04-25 14:07 | 29.07040 | -81.30988 | 17525 ft | 407 kts | 352° |
| 2026-04-25 14:08 | 29.09872 | -81.31311 | 17852 ft | 410 kts | 352° |
| 2026-04-25 14:08 | 29.12719 | -81.31607 | 18172 ft | 412 kts | 354° |
| 2026-04-25 14:08 | 29.15591 | -81.31774 | 18465 ft | 415 kts | 355° |
| 2026-04-25 14:08 | 29.18483 | -81.31918 | 18761 ft | 417 kts | 355° |
| 2026-04-25 14:09 | 29.21386 | -81.32073 | 19064 ft | 418 kts | 355° |
| 2026-04-25 14:09 | 29.24296 | -81.32238 | 19360 ft | 419 kts | 355° |
| 2026-04-25 14:09 | 29.27216 | -81.32407 | 19650 ft | 421 kts | 355° |
| 2026-04-25 14:09 | 29.29157 | -81.32521 | 19836 ft | 422 kts | 355° |
| 2026-04-25 14:10 | 29.33091 | -81.32755 | 20221 ft | 424 kts | 355° |
| 2026-04-25 14:10 | 29.36001 | -81.32929 | 20502 ft | 426 kts | 355° |
| 2026-04-25 14:10 | 29.38964 | -81.33107 | 20769 ft | 427 kts | 355° |
| 2026-04-25 14:10 | 29.41940 | -81.33287 | 21041 ft | 429 kts | 355° |
| 2026-04-25 14:11 | 29.44923 | -81.33466 | 21317 ft | 430 kts | 355° |
| 2026-04-25 14:11 | 29.47924 | -81.33647 | 21597 ft | 432 kts | 355° |
| 2026-04-25 14:11 | 29.50927 | -81.33829 | 21856 ft | 433 kts | 355° |
| 2026-04-25 14:11 | 29.53946 | -81.34011 | 22114 ft | 435 kts | 355° |
| 2026-04-25 14:12 | 29.56982 | -81.34194 | 22382 ft | 437 kts | 355° |
| 2026-04-25 14:12 | 29.60027 | -81.34378 | 22641 ft | 438 kts | 355° |
| 2026-04-25 14:12 | 29.63083 | -81.34562 | 22895 ft | 440 kts | 355° |
| 2026-04-25 14:12 | 29.66144 | -81.34745 | 23146 ft | 442 kts | 355° |
| 2026-04-25 14:13 | 29.69221 | -81.34921 | 23386 ft | 444 kts | 355° |
| 2026-04-25 14:13 | 29.72317 | -81.35096 | 23616 ft | 445 kts | 355° |
| 2026-04-25 14:13 | 29.75410 | -81.35272 | 23829 ft | 447 kts | 355° |
| 2026-04-25 14:13 | 29.78485 | -81.35447 | 24046 ft | 448 kts | 356° |
| 2026-04-25 14:14 | 29.81603 | -81.35625 | 24262 ft | 449 kts | 356° |
| 2026-04-25 14:14 | 29.84723 | -81.35805 | 24490 ft | 451 kts | 356° |
| 2026-04-25 14:14 | 29.87866 | -81.35985 | 24699 ft | 452 kts | 356° |
| 2026-04-25 14:14 | 29.91008 | -81.36166 | 24904 ft | 453 kts | 356° |
| 2026-04-25 14:15 | 29.94161 | -81.36347 | 25124 ft | 454 kts | 356° |
| 2026-04-25 14:15 | 29.96260 | -81.36468 | 25260 ft | 455 kts | 356° |
| 2026-04-25 14:15 | 30.00500 | -81.36711 | 25541 ft | 457 kts | 356° |
| 2026-04-25 14:15 | 30.03683 | -81.36894 | 25754 ft | 458 kts | 356° |
| 2026-04-25 14:16 | 30.06863 | -81.37077 | 25970 ft | 459 kts | 356° |
| 2026-04-25 14:16 | 30.10065 | -81.37261 | 26177 ft | 460 kts | 356° |
| 2026-04-25 14:16 | 30.13272 | -81.37447 | 26401 ft | 462 kts | 356° |
| 2026-04-25 14:16 | 30.16484 | -81.37633 | 26598 ft | 463 kts | 356° |
| 2026-04-25 14:17 | 30.19665 | -81.37816 | 26829 ft | 464 kts | 356° |
| 2026-04-25 14:17 | 30.22901 | -81.38004 | 27055 ft | 465 kts | 356° |
| 2026-04-25 14:17 | 30.26139 | -81.38191 | 27279 ft | 467 kts | 356° |
| 2026-04-25 14:17 | 30.29386 | -81.38379 | 27497 ft | 468 kts | 357° |
| 2026-04-25 14:18 | 30.32638 | -81.38568 | 27733 ft | 469 kts | 357° |
| 2026-04-25 14:18 | 30.35915 | -81.38758 | 28093 ft | 471 kts | 357° |
| 2026-04-25 14:18 | 30.39196 | -81.38949 | 28480 ft | 473 kts | 357° |
| 2026-04-25 14:18 | 30.42493 | -81.39141 | 28834 ft | 475 kts | 357° |
| 2026-04-25 14:19 | 30.45800 | -81.39333 | 29177 ft | 477 kts | 357° |
| 2026-04-25 14:19 | 30.49120 | -81.39526 | 29503 ft | 479 kts | 357° |
| 2026-04-25 14:19 | 30.52453 | -81.39698 | 29835 ft | 481 kts | 358° |
| 2026-04-25 14:19 | 30.55795 | -81.39869 | 30186 ft | 481 kts | 358° |
| 2026-04-25 14:20 | 30.59134 | -81.40042 | 30581 ft | 479 kts | 358° |
| 2026-04-25 14:20 | 30.61338 | -81.40158 | 30827 ft | 479 kts | 357° |
| 2026-04-25 14:20 | 30.65791 | -81.40392 | 31281 ft | 478 kts | 357° |
| 2026-04-25 14:20 | 30.69114 | -81.40567 | 31648 ft | 477 kts | 357° |
| 2026-04-25 14:21 | 30.72421 | -81.40742 | 31991 ft | 476 kts | 357° |
| 2026-04-25 14:21 | 30.75694 | -81.40916 | 32312 ft | 476 kts | 357° |
| 2026-04-25 14:21 | 30.79031 | -81.41093 | 32647 ft | 475 kts | 357° |
| 2026-04-25 14:21 | 30.82345 | -81.41269 | 32912 ft | 476 kts | 357° |
| 2026-04-25 14:22 | 30.85611 | -81.41443 | 32964 ft | 476 kts | 357° |
| 2026-04-25 14:22 | 30.92219 | -81.41795 | 32953 ft | 475 kts | 357° |
| 2026-04-25 14:23 | 30.98826 | -81.42148 | 32950 ft | 475 kts | 357° |
| 2026-04-25 14:23 | 31.05485 | -81.42504 | 32945 ft | 480 kts | 357° |
| 2026-04-25 14:24 | 31.12167 | -81.42861 | 32944 ft | 481 kts | 357° |
| 2026-04-25 14:24 | 31.18859 | -81.43219 | 32942 ft | 481 kts | 357° |
| 2026-04-25 14:25 | 31.25551 | -81.43609 | 32958 ft | 481 kts | 356° |
| 2026-04-25 14:25 | 31.28841 | -81.43240 | 32966 ft | 483 kts | 13° |
| 2026-04-25 14:25 | 31.31971 | -81.41843 | 32968 ft | 484 kts | 26° |
| 2026-04-25 14:26 | 31.37708 | -81.37729 | 33391 ft | 482 kts | 30° |
| 2026-04-25 14:26 | 31.40570 | -81.35699 | 33752 ft | 480 kts | 28° |
| 2026-04-25 14:26 | 31.43496 | -81.33800 | 33939 ft | 482 kts | 26° |
| 2026-04-25 14:27 | 31.49547 | -81.30300 | 33954 ft | 485 kts | 24° |
| 2026-04-25 14:27 | 31.55675 | -81.26990 | 33949 ft | 484 kts | 23° |
| 2026-04-25 14:28 | 31.61798 | -81.23697 | 33941 ft | 484 kts | 23° |
| 2026-04-25 14:28 | 31.67920 | -81.20372 | 33935 ft | 484 kts | 23° |
| 2026-04-25 14:29 | 31.74038 | -81.17038 | 33925 ft | 484 kts | 24° |
| 2026-04-25 14:29 | 31.80142 | -81.13690 | 33917 ft | 484 kts | 24° |
| 2026-04-25 14:30 | 31.86248 | -81.10339 | 33916 ft | 484 kts | 24° |
| 2026-04-25 14:30 | 31.95375 | -81.05324 | 33916 ft | 485 kts | 24° |
| 2026-04-25 14:31 | 32.01481 | -81.01968 | 33918 ft | 485 kts | 24° |
| 2026-04-25 14:31 | 32.07587 | -80.98567 | 33915 ft | 485 kts | 24° |
| 2026-04-25 14:32 | 32.13684 | -80.95139 | 33920 ft | 485 kts | 24° |
| 2026-04-25 14:32 | 32.19789 | -80.91706 | 33944 ft | 486 kts | 24° |
| 2026-04-25 14:33 | 32.25903 | -80.88274 | 33948 ft | 486 kts | 24° |
| 2026-04-25 14:33 | 32.32011 | -80.84838 | 33945 ft | 486 kts | 24° |
| 2026-04-25 14:34 | 32.38115 | -80.81402 | 33942 ft | 486 kts | 24° |
| 2026-04-25 14:34 | 32.44233 | -80.77953 | 33945 ft | 487 kts | 24° |
| 2026-04-25 14:35 | 32.50346 | -80.74498 | 33945 ft | 487 kts | 24° |
| 2026-04-25 14:35 | 32.56425 | -80.71060 | 33945 ft | 487 kts | 25° |
| 2026-04-25 14:36 | 32.62545 | -80.67594 | 33943 ft | 488 kts | 25° |
| 2026-04-25 14:36 | 32.68621 | -80.64007 | 33939 ft | 489 kts | 30° |
| 2026-04-25 14:37 | 32.73902 | -80.58918 | 33949 ft | 490 kts | 45° |
| 2026-04-25 14:37 | 32.78488 | -80.52908 | 33944 ft | 491 kts | 48° |
| 2026-04-25 14:38 | 32.82970 | -80.46769 | 33947 ft | 492 kts | 48° |
| 2026-04-25 14:38 | 32.87454 | -80.40627 | 33944 ft | 492 kts | 48° |
| 2026-04-25 14:39 | 32.91951 | -80.34499 | 33931 ft | 491 kts | 48° |
| 2026-04-25 14:39 | 32.96448 | -80.28370 | 33922 ft | 491 kts | 48° |
| 2026-04-25 14:40 | 33.00926 | -80.22270 | 33929 ft | 491 kts | 48° |
| 2026-04-25 14:40 | 33.05427 | -80.16129 | 33921 ft | 491 kts | 48° |
| 2026-04-25 14:41 | 33.09916 | -80.09986 | 33933 ft | 491 kts | 48° |
| 2026-04-25 14:41 | 33.14406 | -80.03843 | 33942 ft | 491 kts | 48° |
| 2026-04-25 14:42 | 33.17403 | -79.99728 | 33939 ft | 491 kts | 48° |
| 2026-04-25 14:42 | 33.23370 | -79.91520 | 33948 ft | 491 kts | 48° |
| 2026-04-25 14:43 | 33.27848 | -79.85354 | 33942 ft | 491 kts | 48° |
| 2026-04-25 14:43 | 33.32329 | -79.79172 | 33934 ft | 491 kts | 48° |
| 2026-04-25 14:44 | 33.36796 | -79.72995 | 33929 ft | 491 kts | 48° |
| 2026-04-25 14:44 | 33.41269 | -79.66803 | 33935 ft | 491 kts | 48° |
| 2026-04-25 14:45 | 33.45732 | -79.60609 | 33938 ft | 491 kts | 48° |
| 2026-04-25 14:45 | 33.50196 | -79.54403 | 33931 ft | 491 kts | 48° |
| 2026-04-25 14:46 | 33.54629 | -79.48233 | 33937 ft | 492 kts | 48° |
| 2026-04-25 14:46 | 33.59095 | -79.42009 | 33936 ft | 492 kts | 48° |
| 2026-04-25 14:47 | 33.62077 | -79.37847 | 33934 ft | 492 kts | 49° |
| 2026-04-25 14:47 | 33.68006 | -79.29558 | 33941 ft | 492 kts | 49° |
| 2026-04-25 14:48 | 33.72461 | -79.23325 | 33926 ft | 492 kts | 49° |
| 2026-04-25 14:48 | 33.76922 | -79.17069 | 33951 ft | 492 kts | 49° |
| 2026-04-25 14:49 | 33.81376 | -79.10812 | 33938 ft | 493 kts | 49° |
| 2026-04-25 14:49 | 33.85838 | -79.04537 | 33949 ft | 493 kts | 49° |
| 2026-04-25 14:50 | 33.90262 | -78.98304 | 33943 ft | 493 kts | 49° |
| 2026-04-25 14:50 | 33.94712 | -78.92024 | 33938 ft | 493 kts | 49° |
| 2026-04-25 14:51 | 33.99157 | -78.85735 | 33925 ft | 493 kts | 49° |
| 2026-04-25 14:51 | 34.03603 | -78.79442 | 33923 ft | 493 kts | 49° |
| 2026-04-25 14:52 | 34.08047 | -78.73137 | 33944 ft | 493 kts | 49° |
| 2026-04-25 14:52 | 34.11019 | -78.68913 | 33950 ft | 493 kts | 49° |
| 2026-04-25 14:53 | 34.16927 | -78.60500 | 33934 ft | 493 kts | 49° |
| 2026-04-25 14:53 | 34.20618 | -78.55233 | 33950 ft | 494 kts | 49° |
| 2026-04-25 14:54 | 34.25441 | -78.47543 | 33944 ft | 495 kts | 60° |
| 2026-04-25 14:54 | 34.28028 | -78.41365 | 33928 ft | 496 kts | 63° |
| 2026-04-25 14:55 | 34.30943 | -78.33803 | 33925 ft | 496 kts | 64° |
| 2026-04-25 14:55 | 34.33817 | -78.26220 | 33924 ft | 496 kts | 64° |
| 2026-04-25 14:56 | 34.36701 | -78.18642 | 33927 ft | 496 kts | 64° |
| 2026-04-25 14:56 | 34.39594 | -78.11067 | 33931 ft | 496 kts | 64° |
| 2026-04-25 14:57 | 34.42486 | -78.03486 | 33930 ft | 496 kts | 64° |
| 2026-04-25 14:57 | 34.45376 | -77.95891 | 33932 ft | 496 kts | 64° |
| 2026-04-25 14:58 | 34.48261 | -77.88288 | 33935 ft | 496 kts | 64° |
| 2026-04-25 14:58 | 34.51140 | -77.80683 | 33929 ft | 496 kts | 64° |
| 2026-04-25 14:59 | 34.54003 | -77.73108 | 33930 ft | 497 kts | 64° |
| 2026-04-25 14:59 | 34.57662 | -77.65992 | 33933 ft | 494 kts | 48° |
| 2026-04-25 15:00 | 34.62471 | -77.60070 | 33932 ft | 493 kts | 43° |
| 2026-04-25 15:00 | 34.67443 | -77.54391 | 33933 ft | 493 kts | 42° |
| 2026-04-25 15:01 | 34.72459 | -77.48692 | 33939 ft | 494 kts | 42° |
| 2026-04-25 15:01 | 34.77456 | -77.42961 | 33935 ft | 494 kts | 42° |
| 2026-04-25 15:02 | 34.82442 | -77.37208 | 33933 ft | 494 kts | 42° |
| 2026-04-25 15:02 | 34.87429 | -77.31441 | 33936 ft | 494 kts | 42° |
| 2026-04-25 15:03 | 34.92407 | -77.25673 | 33932 ft | 494 kts | 42° |
| 2026-04-25 15:03 | 34.97385 | -77.19901 | 33934 ft | 494 kts | 43° |
| 2026-04-25 15:04 | 35.02362 | -77.14111 | 33933 ft | 494 kts | 43° |
| 2026-04-25 15:04 | 35.07338 | -77.08316 | 33934 ft | 494 kts | 43° |
| 2026-04-25 15:05 | 35.12306 | -77.02520 | 33932 ft | 494 kts | 43° |
| 2026-04-25 15:06 | 35.19730 | -76.93843 | 33929 ft | 494 kts | 43° |
| 2026-04-25 15:06 | 35.24704 | -76.88016 | 33927 ft | 495 kts | 43° |
| 2026-04-25 15:07 | 35.29673 | -76.82186 | 33919 ft | 495 kts | 43° |
| 2026-04-25 15:07 | 35.34637 | -76.76347 | 33912 ft | 495 kts | 43° |
| 2026-04-25 15:08 | 35.39614 | -76.70484 | 33911 ft | 496 kts | 42° |
| 2026-04-25 15:08 | 35.44590 | -76.64611 | 33906 ft | 497 kts | 42° |
| 2026-04-25 15:09 | 35.49580 | -76.58714 | 33902 ft | 498 kts | 42° |
| 2026-04-25 15:09 | 35.57063 | -76.49850 | 33902 ft | 499 kts | 42° |
| 2026-04-25 15:10 | 35.62230 | -76.44190 | 33903 ft | 496 kts | 34° |
| 2026-04-25 15:11 | 35.70627 | -76.36827 | 33898 ft | 496 kts | 32° |
| 2026-04-25 15:11 | 35.76296 | -76.31975 | 33895 ft | 496 kts | 32° |
| 2026-04-25 15:12 | 35.84790 | -76.24666 | 33900 ft | 497 kts | 32° |
| 2026-04-25 15:12 | 35.88573 | -76.21396 | 33894 ft | 497 kts | 32° |
| 2026-04-25 15:13 | 35.98894 | -76.12444 | 34523 ft | 491 kts | 32° |
| 2026-04-25 15:13 | 36.01682 | -76.10020 | 34818 ft | 490 kts | 32° |
| 2026-04-25 15:14 | 36.04480 | -76.07589 | 34893 ft | 494 kts | 32° |
| 2026-04-25 15:14 | 36.10128 | -76.02677 | 34896 ft | 495 kts | 32° |
| 2026-04-25 15:15 | 36.15759 | -75.97766 | 34898 ft | 494 kts | 32° |
| 2026-04-25 15:15 | 36.21380 | -75.92854 | 34898 ft | 494 kts | 32° |
| 2026-04-25 15:16 | 36.27028 | -75.88008 | 34899 ft | 492 kts | 27° |
| 2026-04-25 15:16 | 36.35860 | -75.81649 | 34898 ft | 491 kts | 26° |
| 2026-04-25 15:17 | 36.44770 | -75.75381 | 34899 ft | 491 kts | 25° |
| 2026-04-25 15:18 | 36.50707 | -75.71187 | 34898 ft | 490 kts | 25° |
| 2026-04-25 15:18 | 36.59602 | -75.64879 | 34892 ft | 490 kts | 25° |
| 2026-04-25 15:19 | 36.63530 | -75.62086 | 34896 ft | 490 kts | 25° |
| 2026-04-25 15:19 | 36.71422 | -75.56466 | 34893 ft | 490 kts | 25° |
| 2026-04-25 15:20 | 36.77343 | -75.52241 | 34894 ft | 490 kts | 25° |
| 2026-04-25 15:20 | 36.83267 | -75.48007 | 34902 ft | 490 kts | 25° |
| 2026-04-25 15:21 | 36.89192 | -75.43764 | 34901 ft | 491 kts | 25° |
| 2026-04-25 15:21 | 36.95117 | -75.39514 | 34902 ft | 491 kts | 25° |
| 2026-04-25 15:22 | 37.01042 | -75.35256 | 34903 ft | 491 kts | 25° |
| 2026-04-25 15:22 | 37.06929 | -75.31017 | 34908 ft | 491 kts | 25° |
| 2026-04-25 15:23 | 37.12856 | -75.26742 | 34908 ft | 491 kts | 25° |
| 2026-04-25 15:23 | 37.18783 | -75.22459 | 34910 ft | 491 kts | 25° |
| 2026-04-25 15:24 | 37.24701 | -75.18175 | 34919 ft | 491 kts | 25° |
| 2026-04-25 15:24 | 37.28625 | -75.15329 | 34918 ft | 491 kts | 25° |
| 2026-04-25 15:25 | 37.36506 | -75.09604 | 34924 ft | 491 kts | 25° |
| 2026-04-25 15:25 | 37.42429 | -75.05293 | 34929 ft | 491 kts | 25° |
| 2026-04-25 15:26 | 37.48347 | -75.00977 | 34933 ft | 491 kts | 25° |
| 2026-04-25 15:26 | 37.54254 | -74.96661 | 34930 ft | 491 kts | 25° |
| 2026-04-25 15:27 | 37.60184 | -74.92321 | 34935 ft | 491 kts | 25° |
| 2026-04-25 15:28 | 37.69129 | -74.86047 | 34937 ft | 489 kts | 21° |
| 2026-04-25 15:28 | 37.75223 | -74.82223 | 34945 ft | 488 kts | 21° |
| 2026-04-25 15:29 | 37.81307 | -74.78375 | 34949 ft | 489 kts | 21° |
| 2026-04-25 15:29 | 37.87362 | -74.74472 | 34951 ft | 489 kts | 21° |
| 2026-04-25 15:30 | 37.93417 | -74.70533 | 34958 ft | 489 kts | 21° |
| 2026-04-25 15:30 | 37.99473 | -74.66583 | 34960 ft | 489 kts | 21° |
| 2026-04-25 15:31 | 38.05490 | -74.62656 | 34965 ft | 489 kts | 21° |
| 2026-04-25 15:31 | 38.11549 | -74.58695 | 34972 ft | 489 kts | 21° |
| 2026-04-25 15:32 | 38.17649 | -74.54901 | 34976 ft | 482 kts | 12° |
| 2026-04-25 15:32 | 38.20877 | -74.54042 | 34987 ft | 467 kts | 357° |
| 2026-04-25 15:32 | 38.24066 | -74.54327 | 34986 ft | 454 kts | 342° |
| 2026-04-25 15:33 | 38.29782 | -74.57396 | 34988 ft | 446 kts | 328° |
| 2026-04-25 15:33 | 38.32532 | -74.59246 | 34986 ft | 446 kts | 328° |
| 2026-04-25 15:33 | 38.37981 | -74.62943 | 34998 ft | 446 kts | 328° |
| 2026-04-25 15:34 | 38.43521 | -74.66559 | 34995 ft | 449 kts | 333° |
| 2026-04-25 15:34 | 38.47496 | -74.68252 | 35000 ft | 455 kts | 342° |
| 2026-04-25 15:35 | 38.56028 | -74.68511 | 35007 ft | 474 kts | 5° |
| 2026-04-25 15:35 | 38.59232 | -74.67366 | 35009 ft | 483 kts | 14° |
| 2026-04-25 15:36 | 38.67816 | -74.60216 | 35019 ft | 503 kts | 35° |
| 2026-04-25 15:36 | 38.73004 | -74.54072 | 35005 ft | 506 kts | 37° |
| 2026-04-25 15:37 | 38.78105 | -74.47945 | 35016 ft | 505 kts | 36° |
| 2026-04-25 15:37 | 38.83287 | -74.41860 | 35027 ft | 504 kts | 36° |
| 2026-04-25 15:38 | 38.88488 | -74.35819 | 35032 ft | 504 kts | 36° |
| 2026-04-25 15:38 | 38.92845 | -74.30763 | 35032 ft | 504 kts | 36° |
| 2026-04-25 15:39 | 38.98042 | -74.24714 | 35037 ft | 504 kts | 36° |
| 2026-04-25 15:39 | 39.03198 | -74.18696 | 35042 ft | 503 kts | 36° |
| 2026-04-25 15:40 | 39.07512 | -74.13649 | 35042 ft | 503 kts | 36° |
| 2026-04-25 15:40 | 39.13558 | -74.06561 | 35046 ft | 503 kts | 36° |
| 2026-04-25 15:41 | 39.18737 | -74.00476 | 35055 ft | 503 kts | 36° |
| 2026-04-25 15:41 | 39.23907 | -73.94390 | 35056 ft | 503 kts | 36° |
| 2026-04-25 15:42 | 39.29070 | -73.88299 | 35059 ft | 502 kts | 36° |
| 2026-04-25 15:42 | 39.34221 | -73.82210 | 35066 ft | 502 kts | 36° |
| 2026-04-25 15:43 | 39.39340 | -73.76145 | 35071 ft | 502 kts | 36° |
| 2026-04-25 15:43 | 39.44484 | -73.70040 | 35071 ft | 502 kts | 36° |
| 2026-04-25 15:44 | 39.49625 | -73.63922 | 35072 ft | 501 kts | 36° |
| 2026-04-25 15:44 | 39.54756 | -73.57805 | 35084 ft | 501 kts | 36° |
| 2026-04-25 15:45 | 39.59883 | -73.51681 | 35088 ft | 500 kts | 36° |
| 2026-04-25 15:45 | 39.64136 | -73.46590 | 35088 ft | 500 kts | 36° |
| 2026-04-25 15:46 | 39.70105 | -73.39430 | 35098 ft | 500 kts | 36° |
| 2026-04-25 15:46 | 39.75178 | -73.33331 | 35096 ft | 499 kts | 36° |
| 2026-04-25 15:47 | 39.80238 | -73.27129 | 35103 ft | 503 kts | 40° |
| 2026-04-25 15:47 | 39.84635 | -73.19939 | 35101 ft | 509 kts | 47° |
| 2026-04-25 15:48 | 39.88800 | -73.12468 | 35109 ft | 510 kts | 47° |
| 2026-04-25 15:48 | 39.92922 | -73.04962 | 35110 ft | 509 kts | 47° |
| 2026-04-25 15:49 | 39.97044 | -72.97467 | 35108 ft | 508 kts | 47° |
| 2026-04-25 15:49 | 40.01143 | -72.90024 | 35115 ft | 508 kts | 47° |
| 2026-04-25 15:50 | 40.05292 | -72.82483 | 35108 ft | 507 kts | 47° |
| 2026-04-25 15:50 | 40.09395 | -72.75006 | 35112 ft | 507 kts | 47° |
| 2026-04-25 15:51 | 40.12803 | -72.68780 | 35119 ft | 506 kts | 47° |
| 2026-04-25 15:51 | 40.17558 | -72.60073 | 35126 ft | 506 kts | 47° |
| 2026-04-25 15:52 | 40.21646 | -72.52568 | 35130 ft | 506 kts | 47° |
| 2026-04-25 15:52 | 40.25725 | -72.45062 | 35143 ft | 505 kts | 47° |
| 2026-04-25 15:53 | 40.29795 | -72.37555 | 35138 ft | 505 kts | 47° |
| 2026-04-25 15:53 | 40.33863 | -72.30035 | 35139 ft | 505 kts | 47° |
| 2026-04-25 15:54 | 40.37920 | -72.22514 | 35143 ft | 505 kts | 47° |
| 2026-04-25 15:54 | 40.41977 | -72.14977 | 35145 ft | 505 kts | 47° |
| 2026-04-25 15:55 | 40.45998 | -72.07489 | 35139 ft | 505 kts | 47° |
| 2026-04-25 15:55 | 40.49927 | -71.99711 | 35135 ft | 514 kts | 55° |
| 2026-04-25 15:56 | 40.52919 | -71.91195 | 35147 ft | 519 kts | 59° |
| 2026-04-25 15:56 | 40.55739 | -71.82441 | 35140 ft | 520 kts | 60° |
| 2026-04-25 15:57 | 40.58533 | -71.73653 | 35150 ft | 520 kts | 60° |
| 2026-04-25 15:57 | 40.61332 | -71.64885 | 35152 ft | 520 kts | 60° |
| 2026-04-25 15:58 | 40.64136 | -71.56114 | 35157 ft | 520 kts | 59° |
| 2026-04-25 15:58 | 40.66940 | -71.47328 | 35154 ft | 520 kts | 59° |
| 2026-04-25 15:59 | 40.69733 | -71.38543 | 35152 ft | 519 kts | 59° |
| 2026-04-25 15:59 | 40.72511 | -71.29775 | 35156 ft | 518 kts | 59° |
| 2026-04-25 16:00 | 40.74348 | -71.23963 | 35149 ft | 518 kts | 59° |
| 2026-04-25 16:00 | 40.78043 | -71.12236 | 35149 ft | 517 kts | 59° |
| 2026-04-25 16:01 | 40.80770 | -71.03543 | 35152 ft | 516 kts | 59° |
| 2026-04-25 16:01 | 40.83406 | -70.94697 | 35141 ft | 519 kts | 63° |
| 2026-04-25 16:02 | 40.85690 | -70.85671 | 35146 ft | 521 kts | 64° |
| 2026-04-25 16:02 | 40.87958 | -70.76580 | 35144 ft | 520 kts | 63° |
| 2026-04-25 16:03 | 40.90269 | -70.67536 | 35147 ft | 519 kts | 63° |
| 2026-04-25 16:03 | 40.92602 | -70.58508 | 35142 ft | 519 kts | 63° |
| 2026-04-25 16:04 | 40.94934 | -70.49471 | 35146 ft | 518 kts | 63° |
| 2026-04-25 16:04 | 40.97253 | -70.40439 | 35145 ft | 518 kts | 63° |
| 2026-04-25 16:05 | 40.99548 | -70.31461 | 35145 ft | 518 kts | 63° |
| 2026-04-25 16:06 | 41.02995 | -70.17904 | 35146 ft | 518 kts | 62° |
| 2026-04-25 16:06 | 41.05286 | -70.08858 | 35148 ft | 518 kts | 62° |
| 2026-04-25 16:07 | 41.07572 | -69.99798 | 35146 ft | 518 kts | 62° |
| 2026-04-25 16:07 | 41.09850 | -69.90733 | 35150 ft | 518 kts | 62° |
| 2026-04-25 16:08 | 41.12119 | -69.81663 | 35146 ft | 518 kts | 62° |
| 2026-04-25 16:08 | 41.14366 | -69.72647 | 35145 ft | 518 kts | 62° |
| 2026-04-25 16:09 | 41.16635 | -69.63513 | 35145 ft | 518 kts | 62° |
| 2026-04-25 16:09 | 41.18881 | -69.54433 | 35149 ft | 518 kts | 62° |
| 2026-04-25 16:10 | 41.20746 | -69.46867 | 35145 ft | 518 kts | 62° |
| 2026-04-25 16:10 | 41.23346 | -69.36282 | 35145 ft | 518 kts | 62° |
| 2026-04-25 16:11 | 41.25574 | -69.27172 | 35142 ft | 518 kts | 62° |
| 2026-04-25 16:11 | 41.27792 | -69.18068 | 35139 ft | 517 kts | 63° |
| 2026-04-25 16:12 | 41.30000 | -69.08963 | 35139 ft | 517 kts | 63° |
| 2026-04-25 16:12 | 41.32200 | -68.99859 | 35137 ft | 517 kts | 63° |
| 2026-04-25 16:13 | 41.34379 | -68.90807 | 35132 ft | 516 kts | 63° |
| 2026-04-25 16:13 | 41.36562 | -68.81704 | 35129 ft | 516 kts | 63° |
| 2026-04-25 16:14 | 41.38735 | -68.72608 | 35130 ft | 516 kts | 63° |
| 2026-04-25 16:14 | 41.40907 | -68.63478 | 35130 ft | 516 kts | 63° |
| 2026-04-25 16:15 | 41.43066 | -68.54364 | 35127 ft | 516 kts | 63° |
| 2026-04-25 16:15 | 41.45221 | -68.45234 | 35132 ft | 516 kts | 63° |
| 2026-04-25 16:16 | 41.47352 | -68.36166 | 35127 ft | 516 kts | 63° |
| 2026-04-25 16:16 | 41.49492 | -68.27025 | 35116 ft | 516 kts | 63° |
| 2026-04-25 16:17 | 41.51626 | -68.17867 | 35121 ft | 516 kts | 63° |
| 2026-04-25 16:17 | 41.53756 | -68.08697 | 35116 ft | 516 kts | 63° |
| 2026-04-25 16:18 | 41.55879 | -67.99523 | 35113 ft | 517 kts | 63° |
| 2026-04-25 16:18 | 41.57990 | -67.90361 | 35242 ft | 515 kts | 63° |
| 2026-04-25 16:18 | 41.59042 | -67.85774 | 35589 ft | 513 kts | 63° |
| 2026-04-25 16:19 | 41.60079 | -67.81238 | 35913 ft | 511 kts | 64° |
| 2026-04-25 16:19 | 41.61105 | -67.76752 | 36170 ft | 510 kts | 64° |
| 2026-04-25 16:19 | 41.62141 | -67.72216 | 36396 ft | 510 kts | 64° |
| 2026-04-25 16:20 | 41.64209 | -67.63139 | 36842 ft | 510 kts | 65° |
| 2026-04-25 16:20 | 41.65239 | -67.58601 | 37063 ft | 510 kts | 65° |
| 2026-04-25 16:21 | 41.68351 | -67.44843 | 37099 ft | 516 kts | 65° |
| 2026-04-25 16:21 | 41.70411 | -67.35658 | 37103 ft | 516 kts | 65° |
| 2026-04-25 16:22 | 41.72470 | -67.26448 | 37096 ft | 516 kts | 66° |
| 2026-04-25 16:22 | 41.74522 | -67.17240 | 37088 ft | 516 kts | 66° |
| 2026-04-25 16:23 | 41.76567 | -67.08023 | 37089 ft | 516 kts | 66° |
| 2026-04-25 16:23 | 41.78313 | -67.00397 | 37089 ft | 512 kts | 62° |
| 2026-04-25 16:24 | 41.80916 | -66.91546 | 37087 ft | 510 kts | 60° |
| 2026-04-25 16:24 | 41.83612 | -66.82745 | 37083 ft | 510 kts | 60° |
| 2026-04-25 16:25 | 41.86311 | -66.73956 | 37081 ft | 510 kts | 60° |
| 2026-04-25 16:25 | 41.88998 | -66.65148 | 37074 ft | 510 kts | 60° |
| 2026-04-25 16:26 | 41.91673 | -66.56328 | 37072 ft | 510 kts | 61° |
| 2026-04-25 16:26 | 41.94341 | -66.47497 | 37072 ft | 510 kts | 61° |
| 2026-04-25 16:27 | 41.97004 | -66.38654 | 37066 ft | 510 kts | 61° |
| 2026-04-25 16:27 | 41.99641 | -66.29871 | 37063 ft | 510 kts | 62° |
| 2026-04-25 16:28 | 42.02289 | -66.21023 | 37059 ft | 510 kts | 62° |
| 2026-04-25 16:28 | 42.04929 | -66.12168 | 37057 ft | 510 kts | 62° |
| 2026-04-25 16:29 | 42.07560 | -66.03311 | 37037 ft | 510 kts | 62° |
| 2026-04-25 16:29 | 42.10183 | -65.94455 | 37054 ft | 509 kts | 62° |
| 2026-04-25 16:30 | 42.12799 | -65.85590 | 37039 ft | 510 kts | 62° |
| 2026-04-25 16:30 | 42.15413 | -65.76701 | 37046 ft | 510 kts | 63° |
| 2026-04-25 16:31 | 42.18018 | -65.67811 | 37038 ft | 510 kts | 63° |
| 2026-04-25 16:31 | 42.20621 | -65.58900 | 37033 ft | 510 kts | 63° |
| 2026-04-25 16:32 | 42.23202 | -65.50032 | 37029 ft | 510 kts | 63° |
| 2026-04-25 16:32 | 42.25793 | -65.41099 | 37027 ft | 510 kts | 63° |
| 2026-04-25 16:33 | 42.28370 | -65.32183 | 37020 ft | 510 kts | 63° |
| 2026-04-25 16:33 | 42.30940 | -65.23259 | 37016 ft | 510 kts | 64° |
| 2026-04-25 16:34 | 42.33504 | -65.14326 | 37018 ft | 510 kts | 64° |
| 2026-04-25 16:34 | 42.36063 | -65.05378 | 37011 ft | 510 kts | 64° |
| 2026-04-25 16:35 | 42.38613 | -64.96431 | 37006 ft | 510 kts | 64° |
| 2026-04-25 16:35 | 42.41156 | -64.87475 | 37007 ft | 510 kts | 64° |
| 2026-04-25 16:36 | 42.43679 | -64.78559 | 37002 ft | 510 kts | 64° |
| 2026-04-25 16:36 | 42.46206 | -64.69591 | 36849 ft | 507 kts | 64° |
| 2026-04-25 16:36 | 42.47454 | -64.65145 | 36987 ft | 504 kts | 64° |
| 2026-04-25 16:37 | 42.48695 | -64.60719 | 36994 ft | 502 kts | 64° |
| 2026-04-25 16:37 | 42.51169 | -64.51888 | 36989 ft | 501 kts | 64° |
| 2026-04-25 16:38 | 42.53641 | -64.43037 | 36985 ft | 501 kts | 64° |
| 2026-04-25 16:38 | 42.56101 | -64.34190 | 36979 ft | 502 kts | 65° |
| 2026-04-25 16:39 | 42.58556 | -64.25328 | 36978 ft | 502 kts | 65° |
| 2026-04-25 16:39 | 42.61004 | -64.16458 | 36977 ft | 502 kts | 65° |
| 2026-04-25 16:40 | 42.63446 | -64.07580 | 36971 ft | 502 kts | 65° |
| 2026-04-25 16:40 | 42.65867 | -63.98744 | 36969 ft | 501 kts | 65° |
| 2026-04-25 16:41 | 42.68292 | -63.89862 | 36961 ft | 501 kts | 65° |
| 2026-04-25 16:41 | 42.71911 | -63.76547 | 36960 ft | 500 kts | 66° |
| 2026-04-25 16:42 | 42.74309 | -63.67686 | 36953 ft | 499 kts | 66° |
| 2026-04-25 16:42 | 42.76704 | -63.58805 | 36951 ft | 499 kts | 66° |
| 2026-04-25 16:43 | 42.79084 | -63.49944 | 36954 ft | 498 kts | 66° |
| 2026-04-25 16:43 | 42.81459 | -63.41072 | 36945 ft | 497 kts | 66° |
| 2026-04-25 16:44 | 42.83817 | -63.32227 | 36940 ft | 497 kts | 66° |
| 2026-04-25 16:44 | 42.86156 | -63.23424 | 36935 ft | 497 kts | 66° |
| 2026-04-25 16:45 | 42.88503 | -63.14562 | 36935 ft | 496 kts | 66° |
| 2026-04-25 16:45 | 42.90838 | -63.05707 | 36925 ft | 496 kts | 66° |
| 2026-04-25 16:46 | 42.93166 | -62.96850 | 36924 ft | 496 kts | 66° |
| 2026-04-25 16:46 | 42.94718 | -62.90927 | 36918 ft | 496 kts | 66° |
| 2026-04-25 16:47 | 42.97800 | -62.79118 | 36912 ft | 496 kts | 66° |
| 2026-04-25 16:47 | 43.00106 | -62.70245 | 36905 ft | 496 kts | 66° |
| 2026-04-25 16:48 | 43.02408 | -62.61355 | 36905 ft | 496 kts | 67° |
| 2026-04-25 16:48 | 43.04704 | -62.52453 | 36902 ft | 496 kts | 67° |
| 2026-04-25 16:49 | 43.06990 | -62.43559 | 36894 ft | 496 kts | 67° |
| 2026-04-25 16:49 | 43.09255 | -62.34711 | 36889 ft | 496 kts | 67° |
| 2026-04-25 16:50 | 43.11531 | -62.25791 | 36885 ft | 496 kts | 67° |
| 2026-04-25 16:50 | 43.13800 | -62.16862 | 36880 ft | 496 kts | 67° |
| 2026-04-25 16:51 | 43.16061 | -62.07929 | 36877 ft | 496 kts | 67° |
| 2026-04-25 16:51 | 43.17556 | -62.02003 | 36867 ft | 496 kts | 67° |
| 2026-04-25 16:52 | 43.20566 | -61.90030 | 36868 ft | 497 kts | 68° |
| 2026-04-25 16:52 | 43.22807 | -61.81074 | 36862 ft | 497 kts | 68° |
| 2026-04-25 16:53 | 43.26159 | -61.67614 | 36850 ft | 497 kts | 68° |
| 2026-04-25 16:54 | 43.28371 | -61.58685 | 36846 ft | 497 kts | 68° |
| 2026-04-25 16:54 | 43.30592 | -61.49689 | 36843 ft | 497 kts | 68° |
| 2026-04-25 16:55 | 43.32804 | -61.40693 | 36836 ft | 497 kts | 68° |
| 2026-04-25 16:55 | 43.35008 | -61.31699 | 36831 ft | 497 kts | 68° |
| 2026-04-25 16:56 | 43.37207 | -61.22686 | 36826 ft | 497 kts | 68° |
| 2026-04-25 16:56 | 43.39402 | -61.13653 | 36822 ft | 498 kts | 68° |
| 2026-04-25 16:57 | 43.41590 | -61.04610 | 36813 ft | 498 kts | 68° |
| 2026-04-25 16:57 | 43.43770 | -60.95568 | 36813 ft | 498 kts | 68° |
| 2026-04-25 16:58 | 43.45935 | -60.86556 | 36803 ft | 498 kts | 68° |
| 2026-04-25 16:58 | 43.48103 | -60.77495 | 36802 ft | 498 kts | 68° |
| 2026-04-25 16:59 | 43.50265 | -60.68414 | 36793 ft | 498 kts | 69° |
| 2026-04-25 16:59 | 43.52418 | -60.59334 | 36792 ft | 499 kts | 69° |
| 2026-04-25 17:00 | 43.54566 | -60.50246 | 36790 ft | 499 kts | 69° |
| 2026-04-25 17:00 | 43.56708 | -60.41150 | 36786 ft | 499 kts | 69° |
| 2026-04-25 17:01 | 43.58829 | -60.32095 | 36781 ft | 499 kts | 69° |
| 2026-04-25 17:01 | 43.60955 | -60.22983 | 36778 ft | 499 kts | 69° |
| 2026-04-25 17:02 | 43.63079 | -60.13856 | 36772 ft | 499 kts | 69° |
| 2026-04-25 17:02 | 43.65190 | -60.04734 | 36768 ft | 499 kts | 69° |
| 2026-04-25 17:03 | 43.67297 | -59.95595 | 36757 ft | 499 kts | 69° |
| 2026-04-25 17:03 | 43.69396 | -59.86450 | 36756 ft | 499 kts | 69° |
| 2026-04-25 17:04 | 43.71486 | -59.77307 | 36748 ft | 499 kts | 69° |
| 2026-04-25 17:04 | 43.73572 | -59.68148 | 36747 ft | 499 kts | 69° |
| 2026-04-25 17:05 | 43.75646 | -59.59003 | 36737 ft | 499 kts | 70° |
| 2026-04-25 17:05 | 43.78733 | -59.45311 | 36730 ft | 499 kts | 70° |
| 2026-04-25 17:06 | 43.80790 | -59.36141 | 36727 ft | 499 kts | 70° |
| 2026-04-25 17:06 | 43.82840 | -59.26964 | 36725 ft | 499 kts | 70° |
| 2026-04-25 17:07 | 43.84885 | -59.17771 | 36721 ft | 499 kts | 70° |
| 2026-04-25 17:07 | 43.86920 | -59.08582 | 36717 ft | 499 kts | 70° |
| 2026-04-25 17:08 | 43.88609 | -59.00925 | 36708 ft | 499 kts | 70° |
| 2026-04-25 17:08 | 43.90630 | -58.91728 | 36701 ft | 499 kts | 70° |
| 2026-04-25 17:09 | 43.92645 | -58.82512 | 36703 ft | 499 kts | 70° |
| 2026-04-25 17:09 | 43.94656 | -58.73287 | 36701 ft | 499 kts | 70° |
| 2026-04-25 17:10 | 43.96656 | -58.64062 | 36685 ft | 499 kts | 70° |
| 2026-04-25 17:10 | 43.98652 | -58.54818 | 36686 ft | 499 kts | 70° |
| 2026-04-25 17:11 | 44.00641 | -58.45567 | 36678 ft | 500 kts | 70° |
| 2026-04-25 17:11 | 44.02624 | -58.36304 | 36675 ft | 500 kts | 70° |
| 2026-04-25 17:12 | 44.04596 | -58.27045 | 36674 ft | 499 kts | 70° |
| 2026-04-25 17:12 | 44.06548 | -58.17843 | 36667 ft | 499 kts | 71° |
| 2026-04-25 17:13 | 44.08189 | -58.10076 | 36665 ft | 499 kts | 71° |
| 2026-04-25 17:13 | 44.10459 | -57.99284 | 36652 ft | 499 kts | 71° |
| 2026-04-25 17:14 | 44.12401 | -57.90004 | 36652 ft | 499 kts | 71° |
| 2026-04-25 17:14 | 44.14334 | -57.80721 | 36647 ft | 499 kts | 71° |
| 2026-04-25 17:15 | 44.16261 | -57.71433 | 36641 ft | 499 kts | 71° |
| 2026-04-25 17:15 | 44.18182 | -57.62128 | 36633 ft | 499 kts | 71° |
| 2026-04-25 17:16 | 44.20083 | -57.52880 | 36628 ft | 500 kts | 71° |
| 2026-04-25 17:16 | 44.21995 | -57.43549 | 36694 ft | 503 kts | 73° |
| 2026-04-25 17:17 | 44.23917 | -57.34119 | 36617 ft | 507 kts | 73° |
| 2026-04-25 17:17 | 44.25832 | -57.24646 | 36616 ft | 507 kts | 73° |
| 2026-04-25 17:18 | 44.27728 | -57.15232 | 36605 ft | 507 kts | 73° |
| 2026-04-25 17:18 | 44.29631 | -57.05753 | 36601 ft | 506 kts | 73° |
| 2026-04-25 17:19 | 44.31523 | -56.96279 | 36596 ft | 507 kts | 73° |
| 2026-04-25 17:19 | 44.33409 | -56.86798 | 36596 ft | 506 kts | 73° |
| 2026-04-25 17:20 | 44.35286 | -56.77317 | 36588 ft | 506 kts | 73° |
| 2026-04-25 17:20 | 44.37153 | -56.67834 | 36583 ft | 506 kts | 74° |
| 2026-04-25 17:21 | 44.39012 | -56.58349 | 36578 ft | 506 kts | 74° |
| 2026-04-25 17:21 | 44.40863 | -56.48861 | 36571 ft | 506 kts | 74° |
| 2026-04-25 17:22 | 44.42395 | -56.40968 | 36564 ft | 506 kts | 74° |
| 2026-04-25 17:22 | 44.44532 | -56.29908 | 36561 ft | 505 kts | 74° |
| 2026-04-25 17:23 | 44.46359 | -56.20398 | 36555 ft | 505 kts | 74° |
| 2026-04-25 17:23 | 44.48177 | -56.10895 | 36550 ft | 505 kts | 74° |
| 2026-04-25 17:24 | 44.49555 | -56.01232 | 36545 ft | 506 kts | 80° |
| 2026-04-25 17:24 | 44.50655 | -55.91500 | 36540 ft | 506 kts | 81° |
| 2026-04-25 17:25 | 44.51713 | -55.81738 | 36536 ft | 506 kts | 81° |
| 2026-04-25 17:25 | 44.52760 | -55.72053 | 36532 ft | 506 kts | 81° |
| 2026-04-25 17:26 | 44.53812 | -55.62300 | 36524 ft | 506 kts | 81° |
| 2026-04-25 17:26 | 44.54860 | -55.52535 | 36520 ft | 506 kts | 81° |
| 2026-04-25 17:27 | 44.55899 | -55.42775 | 36515 ft | 506 kts | 81° |
| 2026-04-25 17:27 | 44.56590 | -55.36237 | 36514 ft | 506 kts | 81° |
| 2026-04-25 17:28 | 44.57951 | -55.23237 | 36504 ft | 506 kts | 81° |
| 2026-04-25 17:28 | 44.58966 | -55.13449 | 36501 ft | 507 kts | 81° |
| 2026-04-25 17:29 | 44.59972 | -55.03663 | 36495 ft | 507 kts | 81° |
| 2026-04-25 17:29 | 44.60965 | -54.93924 | 36488 ft | 507 kts | 81° |
| 2026-04-25 17:30 | 44.61955 | -54.84129 | 36485 ft | 507 kts | 81° |
| 2026-04-25 17:30 | 44.62938 | -54.74313 | 36482 ft | 507 kts | 82° |
| 2026-04-25 17:31 | 44.63912 | -54.64493 | 36472 ft | 507 kts | 82° |
| 2026-04-25 17:31 | 44.64876 | -54.54680 | 36474 ft | 507 kts | 82° |
| 2026-04-25 17:32 | 44.65832 | -54.44862 | 36462 ft | 508 kts | 82° |
| 2026-04-25 17:32 | 44.66778 | -54.35076 | 36461 ft | 508 kts | 82° |
| 2026-04-25 17:33 | 44.67720 | -54.25236 | 36451 ft | 508 kts | 82° |
| 2026-04-25 17:33 | 44.68656 | -54.15369 | 36447 ft | 509 kts | 82° |
| 2026-04-25 17:34 | 44.69582 | -54.05504 | 36444 ft | 509 kts | 82° |
| 2026-04-25 17:34 | 44.70499 | -53.95645 | 36435 ft | 509 kts | 82° |
| 2026-04-25 17:35 | 44.71408 | -53.85775 | 36435 ft | 509 kts | 82° |
| 2026-04-25 17:35 | 44.72309 | -53.75903 | 36426 ft | 509 kts | 82° |
| 2026-04-25 17:36 | 44.73202 | -53.66022 | 36414 ft | 510 kts | 82° |
| 2026-04-25 17:36 | 44.74082 | -53.56186 | 36408 ft | 510 kts | 82° |
| 2026-04-25 17:37 | 44.74955 | -53.46278 | 35960 ft | 511 kts | 81° |
| 2026-04-25 17:37 | 44.75393 | -53.41298 | 35125 ft | 515 kts | 81° |
| 2026-04-25 17:37 | 44.75832 | -53.36280 | 34296 ft | 518 kts | 81° |
| 2026-04-25 17:38 | 44.76269 | -53.31267 | 33744 ft | 514 kts | 81° |
| 2026-04-25 17:38 | 44.76416 | -53.29579 | 33630 ft | 511 kts | 81° |
| 2026-04-25 17:38 | 44.77119 | -53.21424 | 33404 ft | 504 kts | 81° |
| 2026-04-25 17:38 | 44.77540 | -53.16523 | 33393 ft | 505 kts | 81° |
| 2026-04-25 17:39 | 44.78378 | -53.06693 | 33393 ft | 506 kts | 81° |
| 2026-04-25 17:39 | 44.79208 | -52.96837 | 33388 ft | 507 kts | 81° |
| 2026-04-25 17:40 | 44.80022 | -52.87041 | 33380 ft | 507 kts | 81° |
| 2026-04-25 17:40 | 44.80833 | -52.77176 | 33381 ft | 507 kts | 81° |
| 2026-04-25 17:41 | 44.81639 | -52.67308 | 33370 ft | 507 kts | 81° |
| 2026-04-25 17:41 | 44.82437 | -52.57419 | 33373 ft | 508 kts | 81° |
| 2026-04-25 17:42 | 44.83225 | -52.47528 | 33364 ft | 508 kts | 81° |
| 2026-04-25 17:42 | 44.84007 | -52.37623 | 33363 ft | 509 kts | 81° |
| 2026-04-25 17:43 | 44.84781 | -52.27688 | 33353 ft | 510 kts | 82° |
| 2026-04-25 17:43 | 44.85546 | -52.17755 | 33356 ft | 511 kts | 82° |
| 2026-04-25 17:44 | 44.86305 | -52.07787 | 33344 ft | 511 kts | 82° |
| 2026-04-25 17:44 | 44.87050 | -51.97872 | 33343 ft | 512 kts | 82° |
| 2026-04-25 17:45 | 44.87548 | -51.91188 | 33341 ft | 512 kts | 82° |
| 2026-04-25 17:45 | 44.88530 | -51.77882 | 33336 ft | 513 kts | 82° |
| 2026-04-25 17:46 | 44.89253 | -51.67884 | 33334 ft | 513 kts | 82° |
| 2026-04-25 17:46 | 44.89964 | -51.57838 | 33325 ft | 514 kts | 83° |
| 2026-04-25 17:47 | 44.90666 | -51.47803 | 33327 ft | 514 kts | 83° |
| 2026-04-25 17:47 | 44.91364 | -51.37745 | 33319 ft | 515 kts | 83° |
| 2026-04-25 17:48 | 44.92393 | -51.22649 | 33316 ft | 515 kts | 83° |
| 2026-04-25 17:49 | 44.93068 | -51.12577 | 33317 ft | 516 kts | 83° |
| 2026-04-25 17:49 | 44.93736 | -51.02498 | 33316 ft | 516 kts | 83° |
| 2026-04-25 17:50 | 44.94390 | -50.92473 | 33306 ft | 517 kts | 84° |
| 2026-04-25 17:50 | 44.95042 | -50.82348 | 33305 ft | 518 kts | 84° |
| 2026-04-25 17:51 | 44.95685 | -50.72212 | 33300 ft | 519 kts | 84° |
| 2026-04-25 17:51 | 44.96319 | -50.62060 | 33294 ft | 520 kts | 84° |
| 2026-04-25 17:52 | 44.96948 | -50.51871 | 33291 ft | 521 kts | 84° |
| 2026-04-25 17:52 | 44.97570 | -50.41663 | 33286 ft | 521 kts | 84° |
| 2026-04-25 17:53 | 44.98080 | -50.33173 | 33299 ft | 522 kts | 85° |
| 2026-04-25 17:53 | 44.98782 | -50.21279 | 33287 ft | 523 kts | 85° |
| 2026-04-25 17:54 | 44.99377 | -50.11037 | 33299 ft | 523 kts | 85° |
| 2026-04-25 17:54 | 44.99941 | -50.02451 | 33303 ft | 524 kts | 81° |
| 2026-04-25 17:55 | 45.01858 | -49.92534 | 33294 ft | 524 kts | 71° |
| 2026-04-25 17:55 | 45.04248 | -49.82869 | 33275 ft | 525 kts | 70° |
| 2026-04-25 17:56 | 45.06717 | -49.73147 | 33292 ft | 525 kts | 70° |
| 2026-04-25 17:56 | 45.09168 | -49.63388 | 33280 ft | 526 kts | 70° |
| 2026-04-25 17:57 | 45.11599 | -49.53589 | 33276 ft | 527 kts | 71° |
| 2026-04-25 17:57 | 45.14000 | -49.43844 | 33275 ft | 527 kts | 71° |
| 2026-04-25 17:58 | 45.16409 | -49.34021 | 33279 ft | 528 kts | 71° |
| 2026-04-25 17:58 | 45.18818 | -49.24164 | 33292 ft | 529 kts | 71° |
| 2026-04-25 17:59 | 45.21222 | -49.14285 | 33297 ft | 530 kts | 71° |
| 2026-04-25 17:59 | 45.23621 | -49.04386 | 33279 ft | 530 kts | 71° |
| 2026-04-25 18:00 | 45.26011 | -48.94479 | 33296 ft | 531 kts | 72° |
| 2026-04-25 18:00 | 45.28394 | -48.84555 | 33290 ft | 531 kts | 72° |
| 2026-04-25 18:01 | 45.30770 | -48.74616 | 33287 ft | 532 kts | 72° |
| 2026-04-25 18:01 | 45.33126 | -48.64712 | 33290 ft | 532 kts | 72° |
| 2026-04-25 18:02 | 45.35488 | -48.54742 | 33292 ft | 532 kts | 72° |
| 2026-04-25 18:02 | 45.37848 | -48.44742 | 33289 ft | 533 kts | 72° |
| 2026-04-25 18:03 | 45.40195 | -48.34736 | 33301 ft | 533 kts | 72° |
| 2026-04-25 18:03 | 45.42538 | -48.24719 | 33295 ft | 534 kts | 73° |
| 2026-04-25 18:04 | 45.44879 | -48.14663 | 33298 ft | 534 kts | 73° |
| 2026-04-25 18:04 | 45.47211 | -48.04590 | 33309 ft | 535 kts | 73° |
| 2026-04-25 18:05 | 45.49521 | -47.94570 | 33306 ft | 535 kts | 73° |
| 2026-04-25 18:05 | 45.51840 | -47.84467 | 33308 ft | 536 kts | 73° |
| 2026-04-25 18:06 | 45.54150 | -47.74351 | 33318 ft | 536 kts | 73° |
| 2026-04-25 18:06 | 45.56448 | -47.64235 | 33317 ft | 536 kts | 74° |
| 2026-04-25 18:07 | 45.58738 | -47.54116 | 33328 ft | 536 kts | 74° |
| 2026-04-25 18:07 | 45.61021 | -47.43976 | 33333 ft | 536 kts | 74° |
| 2026-04-25 18:08 | 45.63292 | -47.33847 | 33340 ft | 536 kts | 74° |
| 2026-04-25 18:08 | 45.65557 | -47.23696 | 33341 ft | 536 kts | 74° |
| 2026-04-25 18:09 | 45.67808 | -47.13553 | 33349 ft | 535 kts | 75° |
| 2026-04-25 18:09 | 45.70037 | -47.03462 | 33353 ft | 535 kts | 75° |
| 2026-04-25 18:10 | 45.72270 | -46.93305 | 33357 ft | 535 kts | 75° |
| 2026-04-25 18:10 | 45.74495 | -46.83133 | 33367 ft | 535 kts | 75° |
| 2026-04-25 18:11 | 45.76713 | -46.72950 | 33370 ft | 535 kts | 75° |
| 2026-04-25 18:11 | 45.78919 | -46.62769 | 33378 ft | 535 kts | 75° |
| 2026-04-25 18:12 | 45.81105 | -46.52629 | 33385 ft | 536 kts | 75° |
| 2026-04-25 18:12 | 45.83296 | -46.42419 | 33386 ft | 536 kts | 76° |
| 2026-04-25 18:13 | 45.85479 | -46.32194 | 33396 ft | 536 kts | 76° |
| 2026-04-25 18:13 | 45.87657 | -46.21943 | 33405 ft | 537 kts | 76° |
| 2026-04-25 18:14 | 45.90910 | -46.06536 | 33410 ft | 537 kts | 76° |
| 2026-04-25 18:14 | 45.93065 | -45.96263 | 33420 ft | 537 kts | 76° |
| 2026-04-25 18:15 | 45.95212 | -45.85978 | 33426 ft | 537 kts | 76° |
| 2026-04-25 18:15 | 45.97336 | -45.75750 | 33436 ft | 538 kts | 77° |
| 2026-04-25 18:16 | 45.99471 | -45.65419 | 33441 ft | 538 kts | 77° |
| 2026-04-25 18:17 | 46.02652 | -45.49923 | 33445 ft | 538 kts | 77° |
| 2026-04-25 18:17 | 46.04749 | -45.39642 | 33445 ft | 538 kts | 77° |
| 2026-04-25 18:18 | 46.06850 | -45.29290 | 33454 ft | 539 kts | 77° |
| 2026-04-25 18:18 | 46.08943 | -45.18924 | 33457 ft | 539 kts | 77° |
| 2026-04-25 18:19 | 46.11027 | -45.08544 | 33464 ft | 539 kts | 78° |
| 2026-04-25 18:19 | 46.13108 | -44.98127 | 33471 ft | 540 kts | 78° |
| 2026-04-25 18:20 | 46.15176 | -44.87719 | 33470 ft | 540 kts | 78° |
| 2026-04-25 18:20 | 46.17235 | -44.77299 | 33479 ft | 540 kts | 78° |
| 2026-04-25 18:21 | 46.19275 | -44.66926 | 33485 ft | 540 kts | 78° |
| 2026-04-25 18:21 | 46.21317 | -44.56482 | 33489 ft | 541 kts | 78° |
| 2026-04-25 18:22 | 46.23352 | -44.46014 | 33493 ft | 541 kts | 78° |
| 2026-04-25 18:22 | 46.25377 | -44.35549 | 33499 ft | 541 kts | 78° |
| 2026-04-25 18:23 | 46.27390 | -44.25086 | 33501 ft | 541 kts | 79° |
| 2026-04-25 18:23 | 46.29398 | -44.14590 | 33507 ft | 541 kts | 79° |
| 2026-04-25 18:24 | 46.31394 | -44.04097 | 33507 ft | 541 kts | 79° |
| 2026-04-25 18:24 | 46.33370 | -43.93656 | 33511 ft | 541 kts | 79° |
| 2026-04-25 18:25 | 46.35347 | -43.83151 | 33513 ft | 541 kts | 79° |
| 2026-04-25 18:25 | 46.37314 | -43.72638 | 33518 ft | 541 kts | 79° |
| 2026-04-25 18:26 | 46.39274 | -43.62105 | 33524 ft | 541 kts | 80° |
| 2026-04-25 18:26 | 46.41224 | -43.51566 | 33521 ft | 541 kts | 80° |
| 2026-04-25 18:27 | 46.43161 | -43.41034 | 33519 ft | 541 kts | 80° |
| 2026-04-25 18:27 | 46.45088 | -43.30496 | 33527 ft | 541 kts | 80° |
| 2026-04-25 18:28 | 46.47005 | -43.19952 | 33527 ft | 541 kts | 81° |
| 2026-04-25 18:28 | 46.48912 | -43.09407 | 33533 ft | 541 kts | 81° |
| 2026-04-25 18:29 | 46.51746 | -42.93623 | 33531 ft | 541 kts | 81° |
| 2026-04-25 18:30 | 46.55503 | -42.72483 | 33537 ft | 541 kts | 81° |
| 2026-04-25 18:30 | 46.57370 | -42.61883 | 33537 ft | 541 kts | 82° |
| 2026-04-25 18:31 | 46.59227 | -42.51274 | 33545 ft | 541 kts | 82° |
| 2026-04-25 18:31 | 46.61073 | -42.40668 | 33537 ft | 541 kts | 82° |
| 2026-04-25 18:32 | 46.62900 | -42.30101 | 33538 ft | 541 kts | 82° |
| 2026-04-25 18:32 | 46.64727 | -42.19479 | 33538 ft | 541 kts | 82° |
| 2026-04-25 18:33 | 46.66546 | -42.08839 | 33546 ft | 541 kts | 82° |
| 2026-04-25 18:33 | 46.68352 | -41.98203 | 33547 ft | 541 kts | 82° |
| 2026-04-25 18:34 | 46.70139 | -41.87620 | 33547 ft | 541 kts | 83° |
| 2026-04-25 18:34 | 46.71928 | -41.76957 | 33552 ft | 541 kts | 83° |
| 2026-04-25 18:35 | 46.73706 | -41.66297 | 33548 ft | 541 kts | 83° |
| 2026-04-25 18:35 | 46.75476 | -41.55618 | 33554 ft | 541 kts | 83° |
| 2026-04-25 18:36 | 46.77224 | -41.45000 | 33551 ft | 541 kts | 83° |
| 2026-04-25 18:36 | 46.78983 | -41.34250 | 33557 ft | 541 kts | 83° |
| 2026-04-25 18:37 | 46.80711 | -41.23628 | 33557 ft | 541 kts | 83° |
| 2026-04-25 18:37 | 46.82438 | -41.12939 | 33563 ft | 541 kts | 83° |
| 2026-04-25 18:38 | 46.84156 | -41.02241 | 33568 ft | 541 kts | 84° |
| 2026-04-25 18:38 | 46.85862 | -40.91543 | 33563 ft | 541 kts | 84° |
| 2026-04-25 18:39 | 46.87558 | -40.80838 | 33566 ft | 540 kts | 84° |
| 2026-04-25 18:39 | 46.89245 | -40.70122 | 33572 ft | 540 kts | 84° |
| 2026-04-25 18:40 | 46.90922 | -40.59400 | 33575 ft | 540 kts | 84° |
| 2026-04-25 18:40 | 46.92586 | -40.48689 | 33576 ft | 540 kts | 84° |
| 2026-04-25 18:41 | 46.94233 | -40.38020 | 33589 ft | 540 kts | 84° |
| 2026-04-25 18:41 | 46.95877 | -40.27297 | 33585 ft | 541 kts | 84° |
| 2026-04-25 18:42 | 46.96974 | -40.20095 | 33580 ft | 541 kts | 84° |
| 2026-04-25 18:42 | 46.98869 | -40.07593 | 33593 ft | 541 kts | 84° |
| 2026-04-25 18:43 | 47.00111 | -39.96790 | 33596 ft | 533 kts | 92° |
| 2026-04-25 18:43 | 47.00659 | -39.85971 | 33597 ft | 532 kts | 94° |
| 2026-04-25 18:44 | 47.01092 | -39.75161 | 33600 ft | 532 kts | 94° |
| 2026-04-25 18:44 | 47.01514 | -39.64332 | 33598 ft | 532 kts | 94° |
| 2026-04-25 18:45 | 47.01938 | -39.53559 | 33604 ft | 533 kts | 94° |
| 2026-04-25 18:45 | 47.02363 | -39.42685 | 33606 ft | 533 kts | 94° |
| 2026-04-25 18:46 | 47.02779 | -39.31817 | 33607 ft | 534 kts | 94° |
| 2026-04-25 18:46 | 47.03183 | -39.20937 | 33608 ft | 535 kts | 94° |
| 2026-04-25 18:47 | 47.03578 | -39.10046 | 33610 ft | 536 kts | 94° |
| 2026-04-25 18:47 | 47.03961 | -38.99198 | 33615 ft | 536 kts | 94° |
| 2026-04-25 18:48 | 47.04336 | -38.88282 | 33614 ft | 536 kts | 94° |
| 2026-04-25 18:48 | 47.04701 | -38.77350 | 33615 ft | 535 kts | 94° |
| 2026-04-25 18:49 | 47.05055 | -38.66456 | 33618 ft | 534 kts | 94° |
| 2026-04-25 18:49 | 47.05398 | -38.55588 | 33618 ft | 532 kts | 94° |
| 2026-04-25 18:50 | 47.05728 | -38.44763 | 33627 ft | 531 kts | 94° |
| 2026-04-25 18:50 | 47.06048 | -38.33939 | 33627 ft | 530 kts | 94° |
| 2026-04-25 18:51 | 47.06305 | -38.24967 | 33633 ft | 530 kts | 94° |
| 2026-04-25 18:51 | 47.06655 | -38.12341 | 33630 ft | 530 kts | 94° |
| 2026-04-25 18:52 | 47.06943 | -38.01538 | 33636 ft | 530 kts | 94° |
| 2026-04-25 18:52 | 47.07222 | -37.90791 | 33632 ft | 530 kts | 94° |
| 2026-04-25 18:53 | 47.07491 | -37.79971 | 33637 ft | 531 kts | 94° |
| 2026-04-25 18:53 | 47.07749 | -37.69141 | 33641 ft | 531 kts | 94° |
| 2026-04-25 18:54 | 47.08118 | -37.52901 | 33645 ft | 531 kts | 94° |
| 2026-04-25 18:55 | 47.08351 | -37.42055 | 33649 ft | 531 kts | 94° |
| 2026-04-25 18:55 | 47.08573 | -37.31306 | 33648 ft | 530 kts | 94° |
| 2026-04-25 18:56 | 47.08786 | -37.20468 | 33659 ft | 530 kts | 94° |
| 2026-04-25 18:56 | 47.08988 | -37.09638 | 33660 ft | 530 kts | 94° |
| 2026-04-25 18:57 | 47.09181 | -36.98812 | 33663 ft | 530 kts | 94° |
| 2026-04-25 18:57 | 47.09362 | -36.88069 | 33669 ft | 529 kts | 94° |
| 2026-04-25 18:58 | 47.09534 | -36.77269 | 33676 ft | 529 kts | 94° |
| 2026-04-25 18:58 | 47.09772 | -36.61081 | 33685 ft | 529 kts | 94° |
| 2026-04-25 18:59 | 47.10054 | -36.39507 | 33695 ft | 528 kts | 94° |
| 2026-04-25 19:00 | 47.10239 | -36.23397 | 33703 ft | 528 kts | 94° |
| 2026-04-25 19:01 | 47.10401 | -36.07182 | 33714 ft | 528 kts | 94° |
| 2026-04-25 19:01 | 47.10496 | -35.96471 | 33724 ft | 527 kts | 94° |
| 2026-04-25 19:02 | 47.10620 | -35.80319 | 33735 ft | 527 kts | 94° |
| 2026-04-25 19:03 | 47.10701 | -35.67748 | 33739 ft | 527 kts | 94° |
| 2026-04-25 19:03 | 47.10777 | -35.53432 | 33757 ft | 527 kts | 94° |
| 2026-04-25 19:04 | 47.10840 | -35.37358 | 33745 ft | 527 kts | 94° |
| 2026-04-25 19:05 | 47.10889 | -35.15820 | 33760 ft | 527 kts | 94° |
| 2026-04-25 19:06 | 47.10899 | -35.05048 | 33771 ft | 528 kts | 94° |
| 2026-04-25 19:06 | 47.10894 | -34.88862 | 33787 ft | 528 kts | 94° |
| 2026-04-25 19:07 | 47.10867 | -34.72676 | 33793 ft | 529 kts | 94° |
| 2026-04-25 19:08 | 47.10818 | -34.56530 | 33807 ft | 529 kts | 94° |
| 2026-04-25 19:09 | 47.10725 | -34.36652 | 33824 ft | 530 kts | 94° |
| 2026-04-25 19:10 | 47.10612 | -34.18654 | 33832 ft | 530 kts | 94° |
| 2026-04-25 19:10 | 47.10530 | -34.07799 | 33834 ft | 531 kts | 94° |
| 2026-04-25 19:11 | 47.10438 | -33.96966 | 33851 ft | 531 kts | 94° |
| 2026-04-25 19:11 | 47.10336 | -33.86199 | 33856 ft | 531 kts | 94° |
| 2026-04-25 19:12 | 47.10224 | -33.75353 | 33857 ft | 532 kts | 94° |
| 2026-04-25 19:12 | 47.10101 | -33.64496 | 33867 ft | 532 kts | 94° |
| 2026-04-25 19:13 | 47.09967 | -33.53617 | 33874 ft | 533 kts | 94° |
| 2026-04-25 19:13 | 47.09823 | -33.42742 | 33880 ft | 533 kts | 94° |
| 2026-04-25 19:14 | 47.09669 | -33.31845 | 33882 ft | 534 kts | 94° |
| 2026-04-25 19:14 | 47.09505 | -33.20956 | 33889 ft | 534 kts | 94° |
| 2026-04-25 19:15 | 47.09360 | -33.11890 | 33893 ft | 534 kts | 94° |
| 2026-04-25 19:15 | 47.09146 | -32.99229 | 33902 ft | 534 kts | 95° |
| 2026-04-25 19:16 | 47.08950 | -32.88344 | 33906 ft | 534 kts | 95° |
| 2026-04-25 19:16 | 47.08744 | -32.77448 | 33913 ft | 534 kts | 95° |
| 2026-04-25 19:17 | 47.08528 | -32.66573 | 33919 ft | 533 kts | 95° |
| 2026-04-25 19:17 | 47.08302 | -32.55692 | 33922 ft | 533 kts | 95° |
| 2026-04-25 19:18 | 47.08067 | -32.44883 | 33931 ft | 533 kts | 95° |
| 2026-04-25 19:18 | 47.07821 | -32.34033 | 33938 ft | 532 kts | 95° |
| 2026-04-25 19:19 | 47.07564 | -32.23165 | 33940 ft | 532 kts | 95° |
| 2026-04-25 19:19 | 47.07297 | -32.12327 | 33949 ft | 532 kts | 95° |
| 2026-04-25 19:20 | 47.07020 | -32.01490 | 33953 ft | 531 kts | 95° |
| 2026-04-25 19:20 | 47.06734 | -31.90659 | 33963 ft | 531 kts | 95° |
| 2026-04-25 19:21 | 47.06437 | -31.79824 | 33966 ft | 531 kts | 95° |
| 2026-04-25 19:21 | 47.05974 | -31.63651 | 33972 ft | 530 kts | 95° |
| 2026-04-25 19:22 | 47.05651 | -31.52822 | 33982 ft | 530 kts | 95° |
| 2026-04-25 19:23 | 47.05150 | -31.36622 | 33986 ft | 530 kts | 95° |
| 2026-04-25 19:23 | 47.04626 | -31.20450 | 33998 ft | 529 kts | 95° |
| 2026-04-25 19:24 | 47.04264 | -31.09663 | 34004 ft | 529 kts | 96° |
| 2026-04-25 19:25 | 47.03514 | -30.88204 | 34018 ft | 528 kts | 96° |
| 2026-04-25 19:25 | 47.03123 | -30.77460 | 34027 ft | 528 kts | 96° |
| 2026-04-25 19:26 | 47.02721 | -30.66700 | 34033 ft | 528 kts | 96° |
| 2026-04-25 19:26 | 47.02310 | -30.55946 | 34028 ft | 528 kts | 96° |
| 2026-04-25 19:27 | 47.02032 | -30.48833 | 34037 ft | 528 kts | 96° |
| 2026-04-25 19:27 | 47.01458 | -30.34467 | 34044 ft | 528 kts | 96° |
| 2026-04-25 19:28 | 47.01019 | -30.23798 | 34056 ft | 528 kts | 96° |
| 2026-04-25 19:28 | 47.00569 | -30.13069 | 34057 ft | 528 kts | 96° |
| 2026-04-25 19:29 | 47.00121 | -30.02332 | 34039 ft | 528 kts | 95° |
| 2026-04-25 19:29 | 47.00350 | -29.91543 | 34056 ft | 530 kts | 89° |
| 2026-04-25 19:30 | 47.00797 | -29.80752 | 34059 ft | 531 kts | 88° |
| 2026-04-25 19:30 | 47.01188 | -29.71779 | 34064 ft | 531 kts | 88° |
| 2026-04-25 19:31 | 47.01642 | -29.60976 | 34066 ft | 531 kts | 89° |
| 2026-04-25 19:31 | 47.02074 | -29.50170 | 34070 ft | 531 kts | 89° |
| 2026-04-25 19:32 | 47.02491 | -29.39419 | 34078 ft | 531 kts | 89° |
| 2026-04-25 19:32 | 47.02833 | -29.30363 | 34075 ft | 531 kts | 89° |
| 2026-04-25 19:33 | 47.03298 | -29.17800 | 34081 ft | 531 kts | 89° |
| 2026-04-25 19:33 | 47.03686 | -29.06991 | 34089 ft | 531 kts | 89° |
| 2026-04-25 19:34 | 47.04065 | -28.96181 | 34087 ft | 531 kts | 89° |
| 2026-04-25 19:34 | 47.04433 | -28.85360 | 34087 ft | 531 kts | 89° |
| 2026-04-25 19:35 | 47.04791 | -28.74560 | 34094 ft | 530 kts | 89° |
| 2026-04-25 19:35 | 47.05139 | -28.63765 | 34096 ft | 530 kts | 89° |
| 2026-04-25 19:36 | 47.05476 | -28.52972 | 34099 ft | 529 kts | 89° |
| 2026-04-25 19:36 | 47.05802 | -28.42191 | 34102 ft | 529 kts | 89° |
| 2026-04-25 19:37 | 47.06119 | -28.31413 | 34099 ft | 529 kts | 89° |
| 2026-04-25 19:37 | 47.06423 | -28.20696 | 34104 ft | 529 kts | 89° |
| 2026-04-25 19:38 | 47.06719 | -28.09914 | 34106 ft | 529 kts | 89° |
| 2026-04-25 19:38 | 47.07006 | -27.99133 | 34107 ft | 529 kts | 89° |
| 2026-04-25 19:39 | 47.07282 | -27.88352 | 34115 ft | 528 kts | 89° |
| 2026-04-25 19:39 | 47.07547 | -27.77565 | 34111 ft | 528 kts | 89° |
| 2026-04-25 19:40 | 47.07803 | -27.66790 | 34113 ft | 528 kts | 89° |
| 2026-04-25 19:40 | 47.08048 | -27.56015 | 34111 ft | 528 kts | 89° |
| 2026-04-25 19:41 | 47.08284 | -27.45240 | 34113 ft | 528 kts | 89° |
| 2026-04-25 19:41 | 47.08471 | -27.36283 | 34116 ft | 528 kts | 89° |
| 2026-04-25 19:42 | 47.08723 | -27.23690 | 34118 ft | 528 kts | 89° |
| 2026-04-25 19:42 | 47.08928 | -27.12937 | 34119 ft | 527 kts | 89° |
| 2026-04-25 19:43 | 47.09122 | -27.02182 | 34118 ft | 527 kts | 89° |
| 2026-04-25 19:43 | 47.09305 | -26.91496 | 34122 ft | 527 kts | 89° |
| 2026-04-25 19:44 | 47.09480 | -26.80732 | 34123 ft | 527 kts | 89° |
| 2026-04-25 19:44 | 47.09644 | -26.69978 | 34120 ft | 527 kts | 89° |
| 2026-04-25 19:45 | 47.09797 | -26.59235 | 34125 ft | 527 kts | 89° |
| 2026-04-25 19:45 | 47.09942 | -26.48465 | 34125 ft | 527 kts | 89° |
| 2026-04-25 19:46 | 47.10076 | -26.37707 | 34126 ft | 527 kts | 89° |
| 2026-04-25 19:46 | 47.10200 | -26.26954 | 34127 ft | 527 kts | 89° |
| 2026-04-25 19:47 | 47.10313 | -26.16209 | 34127 ft | 526 kts | 89° |
| 2026-04-25 19:47 | 47.10417 | -26.05460 | 34125 ft | 526 kts | 89° |
| 2026-04-25 19:48 | 47.10510 | -25.94734 | 34126 ft | 525 kts | 89° |
| 2026-04-25 19:48 | 47.10594 | -25.84003 | 34125 ft | 525 kts | 89° |
| 2026-04-25 19:49 | 47.10644 | -25.76841 | 34121 ft | 525 kts | 89° |
| 2026-04-25 19:49 | 47.10730 | -25.62580 | 34126 ft | 525 kts | 89° |
| 2026-04-25 19:50 | 47.10806 | -25.46508 | 34128 ft | 524 kts | 89° |
| 2026-04-25 19:51 | 47.10845 | -25.35804 | 34121 ft | 524 kts | 89° |
| 2026-04-25 19:51 | 47.10873 | -25.25095 | 34123 ft | 525 kts | 89° |
| 2026-04-25 19:52 | 47.10891 | -25.14381 | 34125 ft | 525 kts | 89° |
| 2026-04-25 19:52 | 47.10899 | -25.03725 | 34129 ft | 525 kts | 89° |
| 2026-04-25 19:53 | 47.10898 | -24.93009 | 34124 ft | 525 kts | 89° |
| 2026-04-25 19:53 | 47.10886 | -24.82280 | 34125 ft | 526 kts | 89° |
| 2026-04-25 19:54 | 47.10864 | -24.71544 | 34128 ft | 526 kts | 89° |
| 2026-04-25 19:54 | 47.10832 | -24.60795 | 34125 ft | 526 kts | 89° |
| 2026-04-25 19:55 | 47.10790 | -24.50038 | 34124 ft | 526 kts | 89° |
| 2026-04-25 19:55 | 47.10739 | -24.39288 | 34123 ft | 527 kts | 89° |
| 2026-04-25 19:56 | 47.10677 | -24.28529 | 34123 ft | 527 kts | 89° |
| 2026-04-25 19:56 | 47.10605 | -24.17844 | 34121 ft | 527 kts | 89° |
| 2026-04-25 19:57 | 47.10522 | -24.07096 | 34122 ft | 526 kts | 89° |
| 2026-04-25 19:57 | 47.10430 | -23.96351 | 34122 ft | 526 kts | 89° |
| 2026-04-25 19:58 | 47.10328 | -23.85603 | 34116 ft | 526 kts | 89° |
| 2026-04-25 19:58 | 47.10216 | -23.74859 | 34115 ft | 526 kts | 89° |
| 2026-04-25 19:59 | 47.10095 | -23.64132 | 34114 ft | 526 kts | 89° |
| 2026-04-25 19:59 | 47.09963 | -23.53404 | 34115 ft | 526 kts | 89° |
| 2026-04-25 20:00 | 47.09821 | -23.42660 | 34111 ft | 526 kts | 89° |
| 2026-04-25 20:00 | 47.09669 | -23.31938 | 34113 ft | 525 kts | 89° |
| 2026-04-25 20:01 | 47.09423 | -23.15917 | 34114 ft | 525 kts | 89° |
| 2026-04-25 20:01 | 47.09247 | -23.05202 | 34108 ft | 525 kts | 89° |
| 2026-04-25 20:02 | 47.09061 | -22.94501 | 34111 ft | 525 kts | 89° |
| 2026-04-25 20:02 | 47.08864 | -22.83788 | 34110 ft | 525 kts | 89° |
| 2026-04-25 20:03 | 47.08657 | -22.73081 | 34106 ft | 525 kts | 89° |
| 2026-04-25 20:03 | 47.08440 | -22.62373 | 34105 ft | 525 kts | 89° |
| 2026-04-25 20:04 | 47.08213 | -22.51664 | 34102 ft | 525 kts | 89° |
| 2026-04-25 20:04 | 47.07976 | -22.40950 | 34102 ft | 525 kts | 89° |
| 2026-04-25 20:05 | 47.07729 | -22.30244 | 34103 ft | 524 kts | 89° |
| 2026-04-25 20:05 | 47.07474 | -22.19620 | 34096 ft | 524 kts | 89° |
| 2026-04-25 20:06 | 47.07208 | -22.08941 | 34095 ft | 523 kts | 89° |
| 2026-04-25 20:06 | 47.06932 | -21.98279 | 34084 ft | 523 kts | 89° |
| 2026-04-25 20:07 | 47.06648 | -21.87630 | 34089 ft | 523 kts | 89° |
| 2026-04-25 20:07 | 47.06353 | -21.76960 | 34091 ft | 523 kts | 89° |
| 2026-04-25 20:08 | 47.06048 | -21.66297 | 34086 ft | 523 kts | 89° |
| 2026-04-25 20:08 | 47.05733 | -21.55635 | 34086 ft | 523 kts | 89° |
| 2026-04-25 20:09 | 47.05407 | -21.44968 | 34079 ft | 524 kts | 89° |
| 2026-04-25 20:09 | 47.05073 | -21.34297 | 34078 ft | 524 kts | 90° |
| 2026-04-25 20:10 | 47.04727 | -21.23612 | 34084 ft | 524 kts | 90° |
| 2026-04-25 20:10 | 47.04375 | -21.13009 | 34079 ft | 523 kts | 90° |
| 2026-04-25 20:11 | 47.04011 | -21.02357 | 34079 ft | 523 kts | 90° |
| 2026-04-25 20:11 | 47.03637 | -20.91708 | 34079 ft | 523 kts | 90° |
| 2026-04-25 20:12 | 47.03253 | -20.81046 | 34074 ft | 523 kts | 91° |
| 2026-04-25 20:12 | 47.02991 | -20.73927 | 34076 ft | 523 kts | 91° |
| 2026-04-25 20:13 | 47.02455 | -20.59751 | 34074 ft | 522 kts | 91° |
| 2026-04-25 20:13 | 47.02113 | -20.50928 | 34074 ft | 522 kts | 92° |
| 2026-04-25 20:14 | 47.01693 | -20.40316 | 34077 ft | 522 kts | 92° |
| 2026-04-25 20:14 | 47.01262 | -20.29688 | 34075 ft | 521 kts | 92° |
| 2026-04-25 20:15 | 47.00823 | -20.19098 | 34072 ft | 521 kts | 92° |
| 2026-04-25 20:15 | 47.00374 | -20.08504 | 34073 ft | 520 kts | 93° |
| 2026-04-25 20:16 | 47.00089 | -19.97920 | 34074 ft | 520 kts | 89° |
| 2026-04-25 20:16 | 47.00249 | -19.87346 | 34074 ft | 519 kts | 88° |
| 2026-04-25 20:17 | 47.00472 | -19.76763 | 34075 ft | 519 kts | 88° |
| 2026-04-25 20:17 | 47.00688 | -19.66264 | 34074 ft | 519 kts | 88° |
| 2026-04-25 20:18 | 47.00889 | -19.55633 | 34078 ft | 519 kts | 88° |
| 2026-04-25 20:18 | 47.01072 | -19.45137 | 34078 ft | 518 kts | 89° |
| 2026-04-25 20:19 | 47.01246 | -19.34573 | 34082 ft | 518 kts | 89° |
| 2026-04-25 20:19 | 47.01411 | -19.24012 | 34087 ft | 518 kts | 89° |
| 2026-04-25 20:20 | 47.01566 | -19.13467 | 34083 ft | 518 kts | 89° |
| 2026-04-25 20:20 | 47.01711 | -19.02933 | 34082 ft | 517 kts | 90° |
| 2026-04-25 20:21 | 47.01847 | -18.92368 | 34088 ft | 517 kts | 90° |
| 2026-04-25 20:21 | 47.01972 | -18.81837 | 34089 ft | 517 kts | 90° |
| 2026-04-25 20:22 | 47.02069 | -18.73070 | 34092 ft | 517 kts | 90° |
| 2026-04-25 20:22 | 47.02195 | -18.60753 | 34096 ft | 517 kts | 90° |
| 2026-04-25 20:23 | 47.02292 | -18.50209 | 34099 ft | 517 kts | 91° |
| 2026-04-25 20:23 | 47.02379 | -18.39660 | 34099 ft | 517 kts | 91° |
| 2026-04-25 20:24 | 47.02456 | -18.29109 | 34105 ft | 517 kts | 91° |
| 2026-04-25 20:24 | 47.02524 | -18.18558 | 34108 ft | 517 kts | 91° |
| 2026-04-25 20:25 | 47.02582 | -18.08076 | 34112 ft | 517 kts | 91° |
| 2026-04-25 20:25 | 47.02631 | -17.97530 | 34116 ft | 517 kts | 91° |
| 2026-04-25 20:26 | 47.02670 | -17.86986 | 34112 ft | 517 kts | 92° |
| 2026-04-25 20:26 | 47.02699 | -17.76443 | 34115 ft | 517 kts | 92° |
| 2026-04-25 20:27 | 47.02718 | -17.65906 | 34129 ft | 516 kts | 92° |
| 2026-04-25 20:27 | 47.02728 | -17.55383 | 34130 ft | 516 kts | 92° |
| 2026-04-25 20:28 | 47.02728 | -17.44865 | 34132 ft | 516 kts | 92° |
| 2026-04-25 20:28 | 47.02719 | -17.34348 | 34136 ft | 516 kts | 93° |
| 2026-04-25 20:29 | 47.02700 | -17.23905 | 34147 ft | 516 kts | 93° |
| 2026-04-25 20:29 | 47.02671 | -17.13391 | 34150 ft | 516 kts | 93° |
| 2026-04-25 20:30 | 47.02633 | -17.02879 | 34150 ft | 516 kts | 93° |
| 2026-04-25 20:30 | 47.02585 | -16.92363 | 34156 ft | 516 kts | 94° |
| 2026-04-25 20:31 | 47.02527 | -16.81857 | 34160 ft | 515 kts | 94° |
| 2026-04-25 20:31 | 47.02460 | -16.71352 | 34162 ft | 515 kts | 94° |
| 2026-04-25 20:32 | 47.02383 | -16.60858 | 34166 ft | 515 kts | 94° |
| 2026-04-25 20:32 | 47.02297 | -16.50365 | 34173 ft | 515 kts | 95° |
| 2026-04-25 20:33 | 47.02201 | -16.39859 | 34172 ft | 515 kts | 95° |
| 2026-04-25 20:33 | 47.02114 | -16.31141 | 34178 ft | 514 kts | 95° |
| 2026-04-25 20:34 | 47.01982 | -16.18945 | 34182 ft | 514 kts | 95° |
| 2026-04-25 20:34 | 47.01858 | -16.08468 | 34184 ft | 514 kts | 95° |
| 2026-04-25 20:35 | 47.01724 | -15.97967 | 34187 ft | 514 kts | 96° |
| 2026-04-25 20:35 | 47.01581 | -15.87494 | 34190 ft | 514 kts | 96° |
| 2026-04-25 20:36 | 47.01428 | -15.77029 | 34195 ft | 514 kts | 96° |
| 2026-04-25 20:36 | 47.01265 | -15.66547 | 34198 ft | 514 kts | 96° |
| 2026-04-25 20:37 | 47.01093 | -15.56071 | 34197 ft | 515 kts | 96° |
| 2026-04-25 20:37 | 47.00911 | -15.45576 | 34201 ft | 515 kts | 97° |
| 2026-04-25 20:38 | 47.00719 | -15.35106 | 34203 ft | 515 kts | 97° |
| 2026-04-25 20:38 | 47.00519 | -15.24675 | 34206 ft | 515 kts | 97° |
| 2026-04-25 20:39 | 47.00309 | -15.14176 | 34212 ft | 515 kts | 97° |
| 2026-04-25 20:39 | 47.00125 | -15.05379 | 34211 ft | 516 kts | 97° |
| 2026-04-25 20:40 | 46.99977 | -14.93142 | 34218 ft | 519 kts | 94° |
| 2026-04-25 20:40 | 47.00318 | -14.82569 | 34216 ft | 521 kts | 92° |
| 2026-04-25 20:41 | 47.00701 | -14.71982 | 34217 ft | 520 kts | 92° |
| 2026-04-25 20:41 | 47.01003 | -14.61386 | 34222 ft | 520 kts | 93° |
| 2026-04-25 20:42 | 47.01253 | -14.50807 | 34225 ft | 519 kts | 94° |
| 2026-04-25 20:42 | 47.01483 | -14.40304 | 34221 ft | 519 kts | 94° |
| 2026-04-25 20:43 | 47.01708 | -14.29734 | 34226 ft | 519 kts | 94° |
| 2026-04-25 20:43 | 47.01925 | -14.19164 | 34225 ft | 518 kts | 94° |
| 2026-04-25 20:44 | 47.02133 | -14.08615 | 34230 ft | 518 kts | 94° |
| 2026-04-25 20:44 | 47.02332 | -13.98063 | 34231 ft | 517 kts | 94° |
| 2026-04-25 20:45 | 47.02520 | -13.87527 | 34230 ft | 517 kts | 94° |
| 2026-04-25 20:45 | 47.02698 | -13.76980 | 34229 ft | 517 kts | 94° |
| 2026-04-25 20:46 | 47.02867 | -13.66456 | 34238 ft | 516 kts | 94° |
| 2026-04-25 20:46 | 47.03025 | -13.55991 | 34243 ft | 516 kts | 94° |
| 2026-04-25 20:47 | 47.03174 | -13.45470 | 34241 ft | 516 kts | 93° |
| 2026-04-25 20:47 | 47.03314 | -13.34926 | 34236 ft | 516 kts | 93° |
| 2026-04-25 20:48 | 47.03444 | -13.24397 | 34237 ft | 516 kts | 93° |
| 2026-04-25 20:48 | 47.03565 | -13.13880 | 34246 ft | 516 kts | 93° |
| 2026-04-25 20:49 | 47.03676 | -13.03379 | 34244 ft | 515 kts | 93° |
| 2026-04-25 20:49 | 47.03777 | -12.92875 | 34244 ft | 515 kts | 93° |
| 2026-04-25 20:50 | 47.03868 | -12.82372 | 34245 ft | 515 kts | 93° |
| 2026-04-25 20:50 | 47.03950 | -12.71876 | 34250 ft | 515 kts | 93° |
| 2026-04-25 20:51 | 47.04023 | -12.61383 | 34249 ft | 515 kts | 93° |
| 2026-04-25 20:51 | 47.04085 | -12.50959 | 34251 ft | 515 kts | 93° |
| 2026-04-25 20:52 | 47.04130 | -12.42164 | 34247 ft | 515 kts | 93° |
| 2026-04-25 20:52 | 47.04181 | -12.29971 | 34244 ft | 515 kts | 93° |
| 2026-04-25 20:53 | 47.04215 | -12.19486 | 34254 ft | 514 kts | 93° |
| 2026-04-25 20:53 | 47.04240 | -12.08986 | 34239 ft | 514 kts | 93° |
| 2026-04-25 20:54 | 47.04256 | -11.98487 | 34247 ft | 514 kts | 94° |
| 2026-04-25 20:54 | 47.04261 | -11.87993 | 34253 ft | 514 kts | 94° |
| 2026-04-25 20:55 | 47.04255 | -11.77511 | 34252 ft | 514 kts | 94° |
| 2026-04-25 20:55 | 47.04241 | -11.67087 | 34250 ft | 514 kts | 93° |
| 2026-04-25 20:56 | 47.04218 | -11.56618 | 34256 ft | 513 kts | 93° |
| 2026-04-25 20:56 | 47.04185 | -11.46148 | 34249 ft | 513 kts | 93° |
| 2026-04-25 20:57 | 47.04143 | -11.35667 | 34256 ft | 513 kts | 94° |
| 2026-04-25 20:57 | 47.04091 | -11.25213 | 34258 ft | 514 kts | 94° |
| 2026-04-25 20:58 | 47.04029 | -11.14726 | 34255 ft | 514 kts | 94° |
| 2026-04-25 20:58 | 47.03958 | -11.04305 | 34256 ft | 514 kts | 94° |
| 2026-04-25 20:59 | 47.03877 | -10.93818 | 34258 ft | 515 kts | 94° |
| 2026-04-25 20:59 | 47.03787 | -10.83321 | 34257 ft | 515 kts | 94° |
| 2026-04-25 21:00 | 47.03721 | -10.76294 | 34252 ft | 515 kts | 94° |
| 2026-04-25 21:01 | 47.03539 | -10.58809 | 34259 ft | 515 kts | 95° |
| 2026-04-25 21:01 | 47.03396 | -10.46604 | 34259 ft | 515 kts | 95° |
| 2026-04-25 21:02 | 47.03262 | -10.36103 | 34254 ft | 515 kts | 95° |
| 2026-04-25 21:02 | 47.03143 | -10.27302 | 34257 ft | 515 kts | 95° |
| 2026-04-25 21:03 | 47.02991 | -10.16791 | 34260 ft | 515 kts | 95° |
| 2026-04-25 21:03 | 47.02831 | -10.06289 | 34257 ft | 515 kts | 95° |
| 2026-04-25 21:04 | 47.02660 | -9.95783 | 34259 ft | 516 kts | 95° |
| 2026-04-25 21:04 | 47.02479 | -9.85274 | 34258 ft | 516 kts | 95° |
| 2026-04-25 21:05 | 47.02289 | -9.74746 | 34258 ft | 516 kts | 95° |
| 2026-04-25 21:05 | 47.02091 | -9.64291 | 34256 ft | 517 kts | 95° |
| 2026-04-25 21:06 | 47.01881 | -9.53759 | 34260 ft | 517 kts | 95° |
| 2026-04-25 21:06 | 47.01662 | -9.43228 | 34258 ft | 517 kts | 95° |
| 2026-04-25 21:07 | 47.01432 | -9.32682 | 34256 ft | 517 kts | 95° |
| 2026-04-25 21:07 | 47.01193 | -9.22143 | 34254 ft | 518 kts | 95° |
| 2026-04-25 21:08 | 47.00944 | -9.11591 | 34255 ft | 518 kts | 95° |
| 2026-04-25 21:08 | 47.00686 | -9.01037 | 34254 ft | 518 kts | 95° |
| 2026-04-25 21:09 | 47.00281 | -8.85226 | 34253 ft | 518 kts | 95° |
| 2026-04-25 21:09 | 46.99998 | -8.74679 | 34252 ft | 517 kts | 95° |
| 2026-04-25 21:10 | 46.99900 | -8.64145 | 34250 ft | 518 kts | 92° |
| 2026-04-25 21:10 | 46.99995 | -8.53596 | 34248 ft | 517 kts | 91° |
| 2026-04-25 21:11 | 47.00060 | -8.43126 | 34243 ft | 517 kts | 92° |
| 2026-04-25 21:11 | 47.00073 | -8.32588 | 34244 ft | 517 kts | 92° |
| 2026-04-25 21:12 | 47.00061 | -8.22035 | 34237 ft | 517 kts | 92° |
| 2026-04-25 21:12 | 47.00043 | -8.13198 | 34238 ft | 518 kts | 92° |
| 2026-04-25 21:13 | 46.99910 | -8.00950 | 34238 ft | 516 kts | 97° |
| 2026-04-25 21:13 | 46.98748 | -7.90591 | 34234 ft | 514 kts | 103° |
| 2026-04-25 21:14 | 46.97328 | -7.80311 | 34243 ft | 515 kts | 104° |
| 2026-04-25 21:14 | 46.95866 | -7.70040 | 34237 ft | 515 kts | 104° |
| 2026-04-25 21:15 | 46.94420 | -7.59842 | 34243 ft | 515 kts | 104° |
| 2026-04-25 21:15 | 46.92966 | -7.49577 | 34236 ft | 516 kts | 103° |
| 2026-04-25 21:16 | 46.91504 | -7.39296 | 34235 ft | 516 kts | 103° |
| 2026-04-25 21:16 | 46.90031 | -7.29020 | 34236 ft | 516 kts | 103° |
| 2026-04-25 21:17 | 46.88546 | -7.18725 | 34237 ft | 517 kts | 103° |
| 2026-04-25 21:17 | 46.87052 | -7.08446 | 34240 ft | 517 kts | 103° |
| 2026-04-25 21:18 | 46.85546 | -6.98151 | 34242 ft | 518 kts | 103° |
| 2026-04-25 21:18 | 46.84031 | -6.87861 | 34240 ft | 518 kts | 103° |
| 2026-04-25 21:19 | 46.82513 | -6.77623 | 34457 ft | 520 kts | 103° |
| 2026-04-25 21:19 | 46.81738 | -6.72423 | 34919 ft | 517 kts | 103° |
| 2026-04-25 21:19 | 46.80972 | -6.67298 | 35185 ft | 517 kts | 103° |
| 2026-04-25 21:20 | 46.79698 | -6.58810 | 35243 ft | 514 kts | 103° |
| 2026-04-25 21:20 | 46.77911 | -6.46983 | 35235 ft | 513 kts | 103° |
| 2026-04-25 21:21 | 46.76365 | -6.36825 | 35239 ft | 513 kts | 103° |
| 2026-04-25 21:21 | 46.74811 | -6.26672 | 35238 ft | 512 kts | 103° |
| 2026-04-25 21:22 | 46.73248 | -6.16530 | 35230 ft | 511 kts | 103° |
| 2026-04-25 21:22 | 46.71690 | -6.06483 | 35233 ft | 510 kts | 103° |
| 2026-04-25 21:23 | 46.70118 | -5.96406 | 35231 ft | 510 kts | 103° |
| 2026-04-25 21:23 | 46.68537 | -5.86337 | 35230 ft | 509 kts | 103° |
| 2026-04-25 21:24 | 46.67329 | -5.76186 | 35229 ft | 508 kts | 96° |
| 2026-04-25 21:24 | 46.66733 | -5.65924 | 35226 ft | 508 kts | 93° |
| 2026-04-25 21:25 | 46.66261 | -5.55669 | 35219 ft | 508 kts | 93° |
| 2026-04-25 21:25 | 46.65766 | -5.45402 | 35222 ft | 508 kts | 93° |
| 2026-04-25 21:26 | 46.65237 | -5.35153 | 35223 ft | 508 kts | 94° |
| 2026-04-25 21:26 | 46.64689 | -5.24911 | 35222 ft | 507 kts | 94° |
| 2026-04-25 21:27 | 46.64136 | -5.14735 | 35212 ft | 507 kts | 94° |
| 2026-04-25 21:27 | 46.63571 | -5.04510 | 35210 ft | 507 kts | 94° |
| 2026-04-25 21:28 | 46.62998 | -4.94291 | 35215 ft | 507 kts | 94° |
| 2026-04-25 21:28 | 46.62416 | -4.84069 | 35208 ft | 506 kts | 94° |
| 2026-04-25 21:29 | 46.61825 | -4.73852 | 35213 ft | 506 kts | 94° |
| 2026-04-25 21:29 | 46.61227 | -4.63660 | 35208 ft | 506 kts | 94° |
| 2026-04-25 21:30 | 46.60617 | -4.53445 | 35211 ft | 506 kts | 94° |
| 2026-04-25 21:30 | 46.60104 | -4.44962 | 35205 ft | 506 kts | 94° |
| 2026-04-25 21:31 | 46.59372 | -4.33041 | 35200 ft | 507 kts | 94° |
| 2026-04-25 21:31 | 46.58736 | -4.22838 | 35198 ft | 507 kts | 94° |
| 2026-04-25 21:32 | 46.58090 | -4.12634 | 35200 ft | 507 kts | 94° |
| 2026-04-25 21:32 | 46.57435 | -4.02427 | 35204 ft | 507 kts | 94° |
| 2026-04-25 21:33 | 46.56770 | -3.92217 | 35201 ft | 507 kts | 94° |
| 2026-04-25 21:33 | 46.56101 | -3.82080 | 35200 ft | 507 kts | 94° |
| 2026-04-25 21:34 | 46.55419 | -3.71881 | 35194 ft | 507 kts | 94° |
| 2026-04-25 21:34 | 46.54727 | -3.61676 | 35198 ft | 507 kts | 94° |
| 2026-04-25 21:35 | 46.54027 | -3.51488 | 35196 ft | 507 kts | 94° |
| 2026-04-25 21:35 | 46.53318 | -3.41308 | 35189 ft | 506 kts | 94° |
| 2026-04-25 21:36 | 46.52601 | -3.31136 | 35190 ft | 506 kts | 94° |
| 2026-04-25 21:36 | 46.51875 | -3.20974 | 35185 ft | 506 kts | 94° |
| 2026-04-25 21:37 | 46.51385 | -3.14180 | 35187 ft | 506 kts | 94° |
| 2026-04-25 21:37 | 46.50397 | -3.00660 | 35187 ft | 505 kts | 94° |
| 2026-04-25 21:38 | 46.49645 | -2.90523 | 35188 ft | 505 kts | 94° |
| 2026-04-25 21:38 | 46.48889 | -2.80447 | 35188 ft | 504 kts | 94° |
| 2026-04-25 21:39 | 46.48121 | -2.70336 | 35189 ft | 504 kts | 94° |
| 2026-04-25 21:39 | 46.47346 | -2.60237 | 35186 ft | 503 kts | 94° |
| 2026-04-25 21:40 | 46.46562 | -2.50150 | 35185 ft | 503 kts | 94° |
| 2026-04-25 21:40 | 46.45769 | -2.40070 | 35185 ft | 503 kts | 94° |
| 2026-04-25 21:41 | 46.44968 | -2.29999 | 35184 ft | 503 kts | 94° |
| 2026-04-25 21:41 | 46.44158 | -2.19936 | 35185 ft | 502 kts | 94° |
| 2026-04-25 21:42 | 46.43340 | -2.09868 | 35184 ft | 502 kts | 94° |
| 2026-04-25 21:42 | 46.42519 | -1.99883 | 35186 ft | 502 kts | 94° |
| 2026-04-25 21:43 | 46.41684 | -1.89836 | 35185 ft | 502 kts | 94° |
| 2026-04-25 21:43 | 46.40839 | -1.79781 | 35187 ft | 502 kts | 95° |
| 2026-04-25 21:44 | 46.40130 | -1.71432 | 35184 ft | 502 kts | 95° |
| 2026-04-25 21:45 | 46.38837 | -1.56377 | 35182 ft | 502 kts | 95° |
| 2026-04-25 21:45 | 46.37962 | -1.46332 | 35182 ft | 502 kts | 95° |
| 2026-04-25 21:46 | 46.37080 | -1.36300 | 35181 ft | 502 kts | 95° |
| 2026-04-25 21:46 | 46.36188 | -1.26270 | 35180 ft | 502 kts | 95° |
| 2026-04-25 21:47 | 46.35288 | -1.16239 | 35183 ft | 503 kts | 96° |
| 2026-04-25 21:47 | 46.34382 | -1.06240 | 35180 ft | 503 kts | 96° |
| 2026-04-25 21:48 | 46.33464 | -0.96203 | 35179 ft | 503 kts | 96° |
| 2026-04-25 21:48 | 46.32535 | -0.86162 | 35179 ft | 504 kts | 96° |
| 2026-04-25 21:49 | 46.31598 | -0.76117 | 35176 ft | 504 kts | 96° |
| 2026-04-25 21:49 | 46.30651 | -0.66072 | 35173 ft | 504 kts | 96° |
| 2026-04-25 21:50 | 46.29695 | -0.56026 | 35173 ft | 504 kts | 96° |
| 2026-04-25 21:50 | 46.28728 | -0.45966 | 35176 ft | 505 kts | 97° |
| 2026-04-25 21:51 | 46.27753 | -0.35907 | 35174 ft | 505 kts | 97° |
| 2026-04-25 21:51 | 46.26775 | -0.25926 | 35172 ft | 505 kts | 97° |
| 2026-04-25 21:52 | 46.25782 | -0.15880 | 35175 ft | 505 kts | 97° |
| 2026-04-25 21:52 | 46.24779 | -0.05820 | 35171 ft | 505 kts | 97° |
| 2026-04-25 21:53 | 46.23768 | 0.04229 | 35170 ft | 506 kts | 97° |
| 2026-04-25 21:53 | 46.22745 | 0.14296 | 35170 ft | 506 kts | 97° |
| 2026-04-25 21:54 | 46.21716 | 0.24346 | 35168 ft | 507 kts | 97° |
| 2026-04-25 21:54 | 46.20673 | 0.34424 | 35165 ft | 507 kts | 98° |
| 2026-04-25 21:55 | 46.19622 | 0.44498 | 35169 ft | 508 kts | 98° |
| 2026-04-25 21:55 | 46.18568 | 0.54525 | 35167 ft | 508 kts | 98° |
| 2026-04-25 21:56 | 46.17497 | 0.64613 | 35168 ft | 509 kts | 98° |
| 2026-04-25 21:56 | 46.16417 | 0.74706 | 35167 ft | 509 kts | 98° |
| 2026-04-25 21:57 | 46.15325 | 0.84814 | 35173 ft | 510 kts | 99° |
| 2026-04-25 21:57 | 46.14224 | 0.94916 | 35172 ft | 510 kts | 99° |
| 2026-04-25 21:58 | 46.13114 | 1.05026 | 35176 ft | 511 kts | 99° |
| 2026-04-25 21:58 | 46.11994 | 1.15139 | 35177 ft | 511 kts | 99° |
| 2026-04-25 21:59 | 46.10864 | 1.25258 | 35180 ft | 512 kts | 99° |
| 2026-04-25 21:59 | 46.09730 | 1.35327 | 35179 ft | 512 kts | 100° |
| 2026-04-25 22:00 | 46.08000 | 1.50525 | 35175 ft | 512 kts | 100° |
| 2026-04-25 22:00 | 46.06836 | 1.60647 | 35175 ft | 512 kts | 100° |
| 2026-04-25 22:01 | 46.05664 | 1.70763 | 35169 ft | 512 kts | 100° |
| 2026-04-25 22:01 | 46.04683 | 1.79164 | 35170 ft | 512 kts | 100° |
| 2026-04-25 22:02 | 46.03295 | 1.90958 | 35169 ft | 511 kts | 101° |
| 2026-04-25 22:02 | 46.02098 | 2.01044 | 35171 ft | 511 kts | 101° |
| 2026-04-25 22:03 | 46.00892 | 2.11134 | 35167 ft | 511 kts | 101° |
| 2026-04-25 22:03 | 45.99686 | 2.21142 | 35166 ft | 511 kts | 101° |
| 2026-04-25 22:04 | 45.98462 | 2.31222 | 35163 ft | 511 kts | 101° |
| 2026-04-25 22:04 | 45.97230 | 2.41295 | 35163 ft | 511 kts | 101° |
| 2026-04-25 22:05 | 45.95990 | 2.51344 | 35165 ft | 511 kts | 102° |
| 2026-04-25 22:05 | 45.94740 | 2.61404 | 35164 ft | 511 kts | 102° |
| 2026-04-25 22:06 | 45.93484 | 2.71445 | 35161 ft | 510 kts | 102° |
| 2026-04-25 22:06 | 45.92218 | 2.81482 | 35157 ft | 510 kts | 102° |
| 2026-04-25 22:07 | 45.91159 | 2.89815 | 35160 ft | 510 kts | 102° |
| 2026-04-25 22:07 | 45.89670 | 3.01458 | 35157 ft | 510 kts | 102° |
| 2026-04-25 22:08 | 45.88378 | 3.11482 | 35156 ft | 509 kts | 102° |
| 2026-04-25 22:08 | 45.87079 | 3.21478 | 35153 ft | 510 kts | 102° |
| 2026-04-25 22:09 | 45.85770 | 3.31483 | 35156 ft | 510 kts | 102° |
| 2026-04-25 22:09 | 45.84453 | 3.41477 | 35156 ft | 510 kts | 102° |
| 2026-04-25 22:10 | 45.83127 | 3.51468 | 35157 ft | 509 kts | 102° |
| 2026-04-25 22:10 | 45.81810 | 3.61338 | 35154 ft | 500 kts | 102° |
| 2026-04-25 22:11 | 45.80504 | 3.71044 | 35155 ft | 499 kts | 102° |
| 2026-04-25 22:11 | 45.79181 | 3.80804 | 35158 ft | 499 kts | 102° |
| 2026-04-25 22:12 | 45.77852 | 3.90551 | 35159 ft | 499 kts | 102° |
| 2026-04-25 22:12 | 45.76730 | 3.98729 | 35159 ft | 498 kts | 102° |
| 2026-04-25 22:13 | 45.75168 | 4.10044 | 35158 ft | 498 kts | 102° |
| 2026-04-25 22:13 | 45.73814 | 4.19776 | 35157 ft | 498 kts | 102° |
| 2026-04-25 22:14 | 45.72451 | 4.29513 | 35155 ft | 498 kts | 102° |
| 2026-04-25 22:14 | 45.71080 | 4.39242 | 35156 ft | 498 kts | 102° |
| 2026-04-25 22:15 | 45.69702 | 4.48956 | 35152 ft | 498 kts | 102° |
| 2026-04-25 22:16 | 45.67630 | 4.63443 | 35137 ft | 497 kts | 102° |
| 2026-04-25 22:16 | 45.66236 | 4.73115 | 35131 ft | 496 kts | 102° |
| 2026-04-25 22:17 | 45.64835 | 4.82779 | 35131 ft | 496 kts | 102° |
| 2026-04-25 22:17 | 45.63431 | 4.92402 | 35128 ft | 495 kts | 102° |
| 2026-04-25 22:18 | 45.62013 | 5.02054 | 35132 ft | 495 kts | 102° |
| 2026-04-25 22:18 | 45.60595 | 5.11657 | 35130 ft | 494 kts | 102° |
| 2026-04-25 22:19 | 45.59168 | 5.21247 | 35131 ft | 493 kts | 102° |
| 2026-04-25 22:19 | 45.57736 | 5.30818 | 35132 ft | 495 kts | 102° |
| 2026-04-25 22:20 | 45.56279 | 5.40501 | 35128 ft | 503 kts | 102° |
| 2026-04-25 22:20 | 45.54943 | 5.49331 | 35131 ft | 504 kts | 102° |
| 2026-04-25 22:21 | 45.53456 | 5.59094 | 35129 ft | 503 kts | 102° |
| 2026-04-25 22:21 | 45.51963 | 5.68837 | 35127 ft | 503 kts | 102° |
| 2026-04-25 22:22 | 45.50463 | 5.78570 | 35053 ft | 502 kts | 102° |
| 2026-04-25 22:22 | 45.49707 | 5.83448 | 34351 ft | 504 kts | 102° |
| 2026-04-25 22:22 | 45.48959 | 5.88266 | 33611 ft | 504 kts | 102° |
| 2026-04-25 22:22 | 45.48189 | 5.93205 | 33198 ft | 504 kts | 102° |
| 2026-04-25 22:23 | 45.47425 | 5.98087 | 33125 ft | 506 kts | 103° |
| 2026-04-25 22:23 | 45.45717 | 6.07817 | 33136 ft | 506 kts | 105° |
| 2026-04-25 22:24 | 45.43916 | 6.17428 | 33137 ft | 505 kts | 105° |
| 2026-04-25 22:24 | 45.42116 | 6.27110 | 33141 ft | 505 kts | 105° |
| 2026-04-25 22:25 | 45.40337 | 6.36773 | 33137 ft | 503 kts | 105° |
| 2026-04-25 22:25 | 45.38567 | 6.46351 | 33139 ft | 499 kts | 105° |
| 2026-04-25 22:26 | 45.36351 | 6.55735 | 32690 ft | 502 kts | 111° |
| 2026-04-25 22:26 | 45.35109 | 6.60390 | 32243 ft | 503 kts | 111° |
| 2026-04-25 22:26 | 45.33861 | 6.65045 | 31760 ft | 504 kts | 111° |
| 2026-04-25 22:26 | 45.32625 | 6.69728 | 31315 ft | 506 kts | 111° |
| 2026-04-25 22:27 | 45.31408 | 6.74420 | 30878 ft | 506 kts | 110° |
| 2026-04-25 22:27 | 45.30203 | 6.79137 | 30437 ft | 507 kts | 110° |
| 2026-04-25 22:27 | 45.28998 | 6.83850 | 29963 ft | 508 kts | 111° |
| 2026-04-25 22:27 | 45.27510 | 6.88389 | 29437 ft | 506 kts | 120° |
| 2026-04-25 22:28 | 45.25571 | 6.92451 | 28928 ft | 502 kts | 130° |
| 2026-04-25 22:28 | 45.23147 | 6.95979 | 28415 ft | 497 kts | 140° |
| 2026-04-25 22:28 | 45.20345 | 6.98807 | 27914 ft | 492 kts | 149° |
| 2026-04-25 22:28 | 45.17400 | 7.01253 | 27420 ft | 489 kts | 151° |
| 2026-04-25 22:29 | 45.14434 | 7.03552 | 26937 ft | 482 kts | 152° |
| 2026-04-25 22:29 | 45.11511 | 7.05753 | 26447 ft | 462 kts | 153° |
| 2026-04-25 22:29 | 45.08755 | 7.07820 | 25964 ft | 435 kts | 152° |
| 2026-04-25 22:30 | 45.03921 | 7.12152 | 25237 ft | 394 kts | 139° |
| 2026-04-25 22:30 | 45.02610 | 7.13892 | 25179 ft | 386 kts | 133° |
| 2026-04-25 22:30 | 45.00828 | 7.16645 | 25162 ft | 373 kts | 133° |
| 2026-04-25 22:30 | 44.99656 | 7.18399 | 25165 ft | 371 kts | 133° |
| 2026-04-25 22:31 | 44.97273 | 7.21926 | 25162 ft | 371 kts | 133° |
| 2026-04-25 22:31 | 44.95495 | 7.24552 | 25096 ft | 367 kts | 133° |
| 2026-04-25 22:31 | 44.93738 | 7.27143 | 24737 ft | 365 kts | 133° |
| 2026-04-25 22:31 | 44.91976 | 7.29729 | 24271 ft | 366 kts | 133° |
| 2026-04-25 22:32 | 44.90213 | 7.32304 | 23903 ft | 364 kts | 133° |
| 2026-04-25 22:32 | 44.88456 | 7.34861 | 23499 ft | 362 kts | 133° |
| 2026-04-25 22:32 | 44.86709 | 7.37400 | 23081 ft | 360 kts | 133° |
| 2026-04-25 22:32 | 44.84968 | 7.39927 | 22642 ft | 357 kts | 133° |
| 2026-04-25 22:33 | 44.83264 | 7.42401 | 22233 ft | 355 kts | 133° |
| 2026-04-25 22:33 | 44.81524 | 7.44925 | 21769 ft | 353 kts | 134° |
| 2026-04-25 22:33 | 44.79947 | 7.47554 | 21345 ft | 351 kts | 123° |
| 2026-04-25 22:33 | 44.78842 | 7.50534 | 20934 ft | 347 kts | 108° |
| 2026-04-25 22:34 | 44.78391 | 7.53841 | 20513 ft | 343 kts | 90° |
| 2026-04-25 22:34 | 44.78712 | 7.57137 | 20113 ft | 339 kts | 72° |
| 2026-04-25 22:34 | 44.79641 | 7.60164 | 19771 ft | 334 kts | 59° |
| 2026-04-25 22:34 | 44.80850 | 7.62900 | 19588 ft | 324 kts | 54° |
| 2026-04-25 22:35 | 44.82128 | 7.65466 | 19434 ft | 315 kts | 53° |
| 2026-04-25 22:35 | 44.83409 | 7.67929 | 19227 ft | 309 kts | 52° |
| 2026-04-25 22:35 | 44.84674 | 7.70353 | 18921 ft | 306 kts | 52° |
| 2026-04-25 22:35 | 44.85923 | 7.72779 | 18598 ft | 304 kts | 53° |
| 2026-04-25 22:36 | 44.87147 | 7.75198 | 18270 ft | 302 kts | 53° |
| 2026-04-25 22:36 | 44.88333 | 7.77635 | 17902 ft | 301 kts | 54° |
| 2026-04-25 22:36 | 44.89507 | 7.80060 | 17583 ft | 299 kts | 54° |
| 2026-04-25 22:36 | 44.90644 | 7.82505 | 17225 ft | 297 kts | 57° |
| 2026-04-25 22:37 | 44.91630 | 7.85068 | 16872 ft | 296 kts | 64° |
| 2026-04-25 22:37 | 44.92325 | 7.87796 | 16518 ft | 295 kts | 75° |
| 2026-04-25 22:37 | 44.92658 | 7.90649 | 16182 ft | 294 kts | 83° |
| 2026-04-25 22:37 | 44.92815 | 7.93519 | 15853 ft | 293 kts | 85° |
| 2026-04-25 22:38 | 44.92937 | 7.96368 | 15525 ft | 291 kts | 85° |
| 2026-04-25 22:38 | 44.93051 | 7.99174 | 15206 ft | 289 kts | 86° |
| 2026-04-25 22:38 | 44.93162 | 8.02001 | 14888 ft | 287 kts | 86° |
| 2026-04-25 22:38 | 44.93271 | 8.04803 | 14569 ft | 285 kts | 86° |
| 2026-04-25 22:39 | 44.93378 | 8.07588 | 14260 ft | 283 kts | 86° |
| 2026-04-25 22:39 | 44.93483 | 8.10363 | 13942 ft | 282 kts | 86° |
| 2026-04-25 22:39 | 44.93587 | 8.13118 | 13587 ft | 280 kts | 86° |
| 2026-04-25 22:39 | 44.93689 | 8.15855 | 13219 ft | 279 kts | 86° |
| 2026-04-25 22:40 | 44.93791 | 8.18593 | 12854 ft | 278 kts | 86° |
| 2026-04-25 22:40 | 44.93891 | 8.21314 | 12505 ft | 277 kts | 86° |
| 2026-04-25 22:40 | 44.93990 | 8.24022 | 12148 ft | 276 kts | 86° |
| 2026-04-25 22:40 | 44.94089 | 8.26724 | 11817 ft | 274 kts | 86° |
| 2026-04-25 22:41 | 44.94281 | 8.29392 | 11461 ft | 273 kts | 77° |
| 2026-04-25 22:41 | 44.94728 | 8.31951 | 11135 ft | 271 kts | 73° |
| 2026-04-25 22:41 | 44.95243 | 8.34506 | 10806 ft | 269 kts | 73° |
| 2026-04-25 22:41 | 44.95804 | 8.37014 | 10476 ft | 267 kts | 66° |
| 2026-04-25 22:42 | 44.96733 | 8.39261 | 10147 ft | 264 kts | 51° |
| 2026-04-25 22:42 | 44.97924 | 8.41223 | 9813 ft | 262 kts | 46° |
| 2026-04-25 22:42 | 44.99164 | 8.43107 | 9448 ft | 262 kts | 45° |
| 2026-04-25 22:42 | 45.00412 | 8.44971 | 9084 ft | 261 kts | 45° |
| 2026-04-25 22:43 | 45.01656 | 8.46819 | 8840 ft | 255 kts | 45° |
| 2026-04-25 22:43 | 45.02867 | 8.48616 | 8608 ft | 250 kts | 45° |
| 2026-04-25 22:43 | 45.04061 | 8.50386 | 8305 ft | 248 kts | 45° |
| 2026-04-25 22:43 | 45.05247 | 8.52144 | 8007 ft | 246 kts | 45° |
| 2026-04-25 22:44 | 45.06444 | 8.53866 | 7683 ft | 245 kts | 41° |
| 2026-04-25 22:44 | 45.07824 | 8.55242 | 7360 ft | 243 kts | 25° |
| 2026-04-25 22:44 | 45.09427 | 8.55945 | 7058 ft | 241 kts | 7° |
| 2026-04-25 22:44 | 45.11072 | 8.55909 | 6755 ft | 240 kts | 351° |
| 2026-04-25 22:45 | 45.12704 | 8.55483 | 6452 ft | 238 kts | 348° |
| 2026-04-25 22:45 | 45.14334 | 8.55003 | 6134 ft | 238 kts | 348° |
| 2026-04-25 22:45 | 45.15958 | 8.54531 | 5797 ft | 238 kts | 348° |
| 2026-04-25 22:45 | 45.17587 | 8.54066 | 5464 ft | 238 kts | 349° |
| 2026-04-25 22:46 | 45.19213 | 8.53607 | 5140 ft | 238 kts | 349° |
| 2026-04-25 22:46 | 45.20833 | 8.53152 | 4995 ft | 237 kts | 349° |
| 2026-04-25 22:46 | 45.22455 | 8.52702 | 4978 ft | 238 kts | 349° |
| 2026-04-25 22:46 | 45.24083 | 8.52251 | 4978 ft | 238 kts | 349° |
| 2026-04-25 22:47 | 45.25709 | 8.51798 | 4976 ft | 238 kts | 349° |
| 2026-04-25 22:47 | 45.27334 | 8.51346 | 4975 ft | 238 kts | 349° |
| 2026-04-25 22:47 | 45.28961 | 8.50903 | 4869 ft | 238 kts | 350° |
| 2026-04-25 22:47 | 45.30578 | 8.50845 | 4746 ft | 237 kts | 9° |
| 2026-04-25 22:48 | 45.32094 | 8.51710 | 4561 ft | 236 kts | 36° |
| 2026-04-25 22:48 | 45.33176 | 8.53431 | 4322 ft | 235 kts | 62° |
| 2026-04-25 22:48 | 45.33692 | 8.55586 | 4111 ft | 234 kts | 78° |
| 2026-04-25 22:48 | 45.33994 | 8.57864 | 3886 ft | 234 kts | 80° |
| 2026-04-25 22:49 | 45.34227 | 8.60142 | 3664 ft | 231 kts | 83° |
| 2026-04-25 22:49 | 45.34410 | 8.62385 | 3440 ft | 226 kts | 83° |
| 2026-04-25 22:49 | 45.34584 | 8.64586 | 3208 ft | 222 kts | 83° |
| 2026-04-25 22:49 | 45.34756 | 8.66749 | 3015 ft | 217 kts | 83° |
| 2026-04-25 22:50 | 45.34923 | 8.68819 | 2962 ft | 204 kts | 83° |
| 2026-04-25 22:50 | 45.35079 | 8.70748 | 2986 ft | 191 kts | 83° |
| 2026-04-25 22:50 | 45.35229 | 8.72601 | 2993 ft | 188 kts | 83° |
| 2026-04-25 22:50 | 45.35381 | 8.74461 | 2980 ft | 190 kts | 83° |
| 2026-04-25 22:51 | 45.35650 | 8.76293 | 2954 ft | 192 kts | 66° |
| 2026-04-25 22:51 | 45.36539 | 8.77654 | 2982 ft | 190 kts | 28° |
| 2026-04-25 22:51 | 45.37772 | 8.78317 | 2980 ft | 190 kts | 15° |
| 2026-04-25 22:51 | 45.39054 | 8.78784 | 2978 ft | 190 kts | 13° |
| 2026-04-25 22:52 | 45.40349 | 8.79184 | 2962 ft | 191 kts | 7° |
| 2026-04-25 22:52 | 45.41673 | 8.79169 | 2979 ft | 191 kts | 352° |
| 2026-04-25 22:52 | 45.42981 | 8.78854 | 2976 ft | 190 kts | 348° |
| 2026-04-25 22:52 | 45.43860 | 8.78615 | 3000 ft | 190 kts | 348° |
| 2026-04-25 22:53 | 45.45584 | 8.78140 | 3001 ft | 190 kts | 348° |
| 2026-04-25 22:53 | 45.46885 | 8.77786 | 3006 ft | 190 kts | 349° |
| 2026-04-25 22:53 | 45.48172 | 8.77438 | 2984 ft | 182 kts | 348° |
| 2026-04-25 22:53 | 45.49369 | 8.77113 | 3005 ft | 171 kts | 348° |
| 2026-04-25 22:54 | 45.50529 | 8.76795 | 2936 ft | 169 kts | 348° |
| 2026-04-25 22:54 | 45.51677 | 8.76479 | 2724 ft | 168 kts | 348° |
| 2026-04-25 22:54 | 45.52826 | 8.76162 | 2503 ft | 168 kts | 348° |
| 2026-04-25 22:54 | 45.53961 | 8.75849 | 2286 ft | 167 kts | 348° |
| 2026-04-25 22:55 | 45.55077 | 8.75544 | 2046 ft | 160 kts | 347° |
| 2026-04-25 22:55 | 45.56143 | 8.75262 | 1847 ft | 151 kts | 347° |
| 2026-04-25 22:55 | 45.57163 | 8.74969 | 1652 ft | 148 kts | 346° |
| 2026-04-25 22:55 | 45.58179 | 8.74687 | 1430 ft | 149 kts | 348° |
| 2026-04-25 22:56 | 45.59186 | 8.74413 | 1232 ft | 147 kts | 348° |
| 2026-04-25 22:56 | 45.60180 | 8.74139 | 1052 ft | 145 kts | 349° |
| 2026-04-25 22:56 | 45.61159 | 8.73865 | 871 ft | 140 kts | 349° |
| 2026-04-25 22:56 | 45.62094 | 8.73609 | 748 ft | 132 kts | 349° |
| 2026-04-25 22:57 | 45.62866 | 8.73394 | 744 ft | 83 kts | 349° |
| 2026-04-25 22:57 | 45.63370 | 8.73258 | 745 ft | 60 kts | 348° |
| 2026-04-25 22:57 | 45.63670 | 8.73121 | 743 ft | 40 kts | 329° |
| 2026-04-25 22:57 | 45.63830 | 8.72890 | 743 ft | 20 kts | 305° |
| 2026-04-25 22:58 | 45.63904 | 8.72736 | 742 ft | 17 kts | 304° |
| 2026-04-25 22:58 | 45.63931 | 8.72676 | 743 ft | 7 kts | 300° |
| 2026-04-25 22:58 | 45.63951 | 8.72594 | 743 ft | 10 kts | 281° |
| 2026-04-25 22:58 | 45.63944 | 8.72443 | 746 ft | 21 kts | 259° |
| 2026-04-25 22:59 | 45.63920 | 8.72205 | 745 ft | 26 kts | 266° |
| 2026-04-25 22:59 | 45.63905 | 8.71947 | 743 ft | 22 kts | 261° |
| 2026-04-25 22:59 | 45.63859 | 8.71841 | 745 ft | 10 kts | 210° |
| 2026-04-25 22:59 | 45.63791 | 8.71830 | 745 ft | 11 kts | 174° |
| 2026-04-25 23:00 | 45.63720 | 8.71847 | 745 ft | 7 kts | 169° |
| 2026-04-25 23:00 | 45.63660 | 8.71863 | 743 ft | 10 kts | 169° |
| 2026-04-25 23:00 | 45.63578 | 8.71886 | 745 ft | 14 kts | 169° |
| 2026-04-25 23:00 | 45.63470 | 8.71915 | 744 ft | 14 kts | 168° |
| 2026-04-25 23:01 | 45.63410 | 8.71932 | 745 ft | 0 kts | 169° |
| 2026-04-25 23:03 | 45.63386 | 8.71939 | 746 ft | 8 kts | 169° |
| 2026-04-25 23:03 | 45.63330 | 8.71930 | 743 ft | 10 kts | 213° |
| 2026-04-25 23:04 | 45.63294 | 8.71777 | 745 ft | 23 kts | 258° |
| 2026-04-25 23:04 | 45.63271 | 8.71617 | 744 ft | 25 kts | 258° |
| 2026-04-25 23:04 | 45.63210 | 8.71477 | 745 ft | 5 kts | 199° |
| 2026-04-25 23:04 | 45.63203 | 8.71473 | 746 ft | 6 kts | 200° |
| 2026-04-25 23:05 | 45.63176 | 8.71459 | 745 ft | 0 kts | 200° |